<?xml version="1.0" encoding="utf-8"?>
<gpx xmlns:xsi="http://www.w3.org/2001/XMLSchema-instance" xmlns:xsd="http://www.w3.org/2001/XMLSchema" version="1.1" creator="Shapelink.com" xmlns="http://www.topografix.com/GPX/1/1" xmlns:gpxtpx="http://www.garmin.com/xmlschemas/TrackPointExtension/v1">
  <metadata>
    <name>Löpning 12.29 km, 2012-03-15</name>
    <desc></desc>
    <author><name>Dennis Rehn</name></author> 
    <time>2012-03-15T18:15:28Z</time>
  </metadata>
  <trk>
    <name>Löpning 12.29 km, 2012-03-15</name>
    <trkseg>
      <trkpt lat="59.9886727405" lon="23.4068675527">
        <ele>25.2</ele>
        <time>2012-03-15T18:15:28Z</time>
      </trkpt>
      <trkpt lat="59.9885563997" lon="23.4067413213">
        <ele>24.8</ele>
        <time>2012-03-15T18:15:35Z</time>
      </trkpt>
      <trkpt lat="59.9884676354" lon="23.4066506292">
        <ele>24.6</ele>
        <time>2012-03-15T18:15:39Z</time>
      </trkpt>
      <trkpt lat="59.9883811342" lon="23.4065488729">
        <ele>24.6</ele>
        <time>2012-03-15T18:15:44Z</time>
      </trkpt>
      <trkpt lat="59.9881673119" lon="23.40632977">
        <ele>25.2</ele>
        <time>2012-03-15T18:15:48Z</time>
      </trkpt>
      <trkpt lat="59.9881364665" lon="23.4062968292">
        <ele>25.4</ele>
        <time>2012-03-15T18:15:49Z</time>
      </trkpt>
      <trkpt lat="59.988021383" lon="23.4063354697">
        <ele>26</ele>
        <time>2012-03-15T18:15:55Z</time>
      </trkpt>
      <trkpt lat="59.9879989195" lon="23.4063411694">
        <ele>26</ele>
        <time>2012-03-15T18:15:56Z</time>
      </trkpt>
      <trkpt lat="59.9878892005" lon="23.4064348791">
        <ele>26.4</ele>
        <time>2012-03-15T18:16:02Z</time>
      </trkpt>
      <trkpt lat="59.9878042918" lon="23.4065419998">
        <ele>26.6</ele>
        <time>2012-03-15T18:16:07Z</time>
      </trkpt>
      <trkpt lat="59.9876519927" lon="23.4067532236">
        <ele>26.6</ele>
        <time>2012-03-15T18:16:15Z</time>
      </trkpt>
      <trkpt lat="59.9875579478" lon="23.4068737554">
        <ele>26.6</ele>
        <time>2012-03-15T18:16:18Z</time>
      </trkpt>
      <trkpt lat="59.9873923214" lon="23.4070501105">
        <ele>26.8</ele>
        <time>2012-03-15T18:16:26Z</time>
      </trkpt>
      <trkpt lat="59.9872648327" lon="23.4071801976">
        <ele>26.8</ele>
        <time>2012-03-15T18:16:31Z</time>
      </trkpt>
      <trkpt lat="59.9871323987" lon="23.4072867316">
        <ele>26.8</ele>
        <time>2012-03-15T18:16:37Z</time>
      </trkpt>
      <trkpt lat="59.9869754895" lon="23.4073519427">
        <ele>26.8</ele>
        <time>2012-03-15T18:16:43Z</time>
      </trkpt>
      <trkpt lat="59.9868234419" lon="23.4073625878">
        <ele>26.8</ele>
        <time>2012-03-15T18:16:48Z</time>
      </trkpt>
      <trkpt lat="59.9866276407" lon="23.4073765855">
        <ele>25.6</ele>
        <time>2012-03-15T18:16:56Z</time>
      </trkpt>
      <trkpt lat="59.986485316" lon="23.4073780105">
        <ele>25.4</ele>
        <time>2012-03-15T18:17:01Z</time>
      </trkpt>
      <trkpt lat="59.9863068654" lon="23.4074110351">
        <ele>25.2</ele>
        <time>2012-03-15T18:17:07Z</time>
      </trkpt>
      <trkpt lat="59.9861624452" lon="23.4074278828">
        <ele>25</ele>
        <time>2012-03-15T18:17:13Z</time>
      </trkpt>
      <trkpt lat="59.9859808095" lon="23.4073811956">
        <ele>24.8</ele>
        <time>2012-03-15T18:17:20Z</time>
      </trkpt>
      <trkpt lat="59.9858275883" lon="23.407258736">
        <ele>24.8</ele>
        <time>2012-03-15T18:17:26Z</time>
      </trkpt>
      <trkpt lat="59.9856937294" lon="23.4071579018">
        <ele>24.8</ele>
        <time>2012-03-15T18:17:31Z</time>
      </trkpt>
      <trkpt lat="59.9856097427" lon="23.4070947022">
        <ele>24.8</ele>
        <time>2012-03-15T18:17:34Z</time>
      </trkpt>
      <trkpt lat="59.985471609" lon="23.4069639446">
        <ele>24.8</ele>
        <time>2012-03-15T18:17:41Z</time>
      </trkpt>
      <trkpt lat="59.9854056435" lon="23.4069393018">
        <ele>24.8</ele>
        <time>2012-03-15T18:17:43Z</time>
      </trkpt>
      <trkpt lat="59.9852768975" lon="23.4069135694">
        <ele>24.8</ele>
        <time>2012-03-15T18:17:48Z</time>
      </trkpt>
      <trkpt lat="59.9851185634" lon="23.4068990687">
        <ele>24.8</ele>
        <time>2012-03-15T18:17:55Z</time>
      </trkpt>
      <trkpt lat="59.9850056592" lon="23.4069459235">
        <ele>24.8</ele>
        <time>2012-03-15T18:18:00Z</time>
      </trkpt>
      <trkpt lat="59.9849574633" lon="23.4070431536">
        <ele>24.8</ele>
        <time>2012-03-15T18:18:03Z</time>
      </trkpt>
      <trkpt lat="59.9848972812" lon="23.4074399527">
        <ele>24.8</ele>
        <time>2012-03-15T18:18:09Z</time>
      </trkpt>
      <trkpt lat="59.984869621" lon="23.4076864644">
        <ele>24.8</ele>
        <time>2012-03-15T18:18:14Z</time>
      </trkpt>
      <trkpt lat="59.9848184076" lon="23.4080406835">
        <ele>24.8</ele>
        <time>2012-03-15T18:18:21Z</time>
      </trkpt>
      <trkpt lat="59.9847822816" lon="23.4083655659">
        <ele>24.8</ele>
        <time>2012-03-15T18:18:27Z</time>
      </trkpt>
      <trkpt lat="59.9847360135" lon="23.4087214614">
        <ele>24.6</ele>
        <time>2012-03-15T18:18:33Z</time>
      </trkpt>
      <trkpt lat="59.984681112" lon="23.4090960485">
        <ele>23.6</ele>
        <time>2012-03-15T18:18:41Z</time>
      </trkpt>
      <trkpt lat="59.9846325808" lon="23.409448675">
        <ele>22.2</ele>
        <time>2012-03-15T18:18:48Z</time>
      </trkpt>
      <trkpt lat="59.984570471" lon="23.4098189874">
        <ele>21.4</ele>
        <time>2012-03-15T18:18:55Z</time>
      </trkpt>
      <trkpt lat="59.9844703073" lon="23.4101392598">
        <ele>20</ele>
        <time>2012-03-15T18:19:02Z</time>
      </trkpt>
      <trkpt lat="59.9844331754" lon="23.4102633957">
        <ele>19.6</ele>
        <time>2012-03-15T18:19:04Z</time>
      </trkpt>
      <trkpt lat="59.984504254" lon="23.41099589">
        <ele>18.8</ele>
        <time>2012-03-15T18:19:18Z</time>
      </trkpt>
      <trkpt lat="59.9845336744" lon="23.4113685492">
        <ele>17.6</ele>
        <time>2012-03-15T18:19:25Z</time>
      </trkpt>
      <trkpt lat="59.9845506897" lon="23.4116824514">
        <ele>17.2</ele>
        <time>2012-03-15T18:19:31Z</time>
      </trkpt>
      <trkpt lat="59.9845692975" lon="23.4119959344">
        <ele>16</ele>
        <time>2012-03-15T18:19:37Z</time>
      </trkpt>
      <trkpt lat="59.9845828762" lon="23.4122929052">
        <ele>15.4</ele>
        <time>2012-03-15T18:19:43Z</time>
      </trkpt>
      <trkpt lat="59.9845949461" lon="23.4126038737">
        <ele>15</ele>
        <time>2012-03-15T18:19:48Z</time>
      </trkpt>
      <trkpt lat="59.9846039147" lon="23.4129314383">
        <ele>14.8</ele>
        <time>2012-03-15T18:19:55Z</time>
      </trkpt>
      <trkpt lat="59.984618164" lon="23.4132999066">
        <ele>14.6</ele>
        <time>2012-03-15T18:20:02Z</time>
      </trkpt>
      <trkpt lat="59.9846382805" lon="23.4136168263">
        <ele>14.6</ele>
        <time>2012-03-15T18:20:08Z</time>
      </trkpt>
      <trkpt lat="59.984662169" lon="23.4143438723">
        <ele>14.6</ele>
        <time>2012-03-15T18:20:21Z</time>
      </trkpt>
      <trkpt lat="59.9846839619" lon="23.4147374863">
        <ele>14.6</ele>
        <time>2012-03-15T18:20:28Z</time>
      </trkpt>
      <trkpt lat="59.9847342533" lon="23.4150929627">
        <ele>14.6</ele>
        <time>2012-03-15T18:20:36Z</time>
      </trkpt>
      <trkpt lat="59.9847811081" lon="23.415441063">
        <ele>14.6</ele>
        <time>2012-03-15T18:20:43Z</time>
      </trkpt>
      <trkpt lat="59.9847991292" lon="23.415750858">
        <ele>14.6</ele>
        <time>2012-03-15T18:20:49Z</time>
      </trkpt>
      <trkpt lat="59.9847968661" lon="23.4160107807">
        <ele>14.6</ele>
        <time>2012-03-15T18:20:54Z</time>
      </trkpt>
      <trkpt lat="59.984794603" lon="23.4161169794">
        <ele>14.6</ele>
        <time>2012-03-15T18:20:56Z</time>
      </trkpt>
      <trkpt lat="59.9847988777" lon="23.4162426241">
        <ele>14.6</ele>
        <time>2012-03-15T18:21:00Z</time>
      </trkpt>
      <trkpt lat="59.9847999674" lon="23.4163374234">
        <ele>14.6</ele>
        <time>2012-03-15T18:21:06Z</time>
      </trkpt>
      <trkpt lat="59.984801979" lon="23.4165661654">
        <ele>14.4</ele>
        <time>2012-03-15T18:21:12Z</time>
      </trkpt>
      <trkpt lat="59.9847972014" lon="23.4169258327">
        <ele>13.4</ele>
        <time>2012-03-15T18:21:18Z</time>
      </trkpt>
      <trkpt lat="59.9847925075" lon="23.4173275772">
        <ele>13</ele>
        <time>2012-03-15T18:21:26Z</time>
      </trkpt>
      <trkpt lat="59.9847928428" lon="23.4176578241">
        <ele>12.8</ele>
        <time>2012-03-15T18:21:32Z</time>
      </trkpt>
      <trkpt lat="59.9847800185" lon="23.4180207603">
        <ele>12.6</ele>
        <time>2012-03-15T18:21:38Z</time>
      </trkpt>
      <trkpt lat="59.9847648472" lon="23.4183459781">
        <ele>12.6</ele>
        <time>2012-03-15T18:21:45Z</time>
      </trkpt>
      <trkpt lat="59.9847553757" lon="23.4186620595">
        <ele>12.6</ele>
        <time>2012-03-15T18:21:51Z</time>
      </trkpt>
      <trkpt lat="59.9847568006" lon="23.4190206372">
        <ele>12.6</ele>
        <time>2012-03-15T18:21:57Z</time>
      </trkpt>
      <trkpt lat="59.9847671103" lon="23.419354153">
        <ele>12.6</ele>
        <time>2012-03-15T18:22:03Z</time>
      </trkpt>
      <trkpt lat="59.9847425514" lon="23.4196805442">
        <ele>12.6</ele>
        <time>2012-03-15T18:22:10Z</time>
      </trkpt>
      <trkpt lat="59.9846837943" lon="23.4202599011">
        <ele>12.6</ele>
        <time>2012-03-15T18:22:21Z</time>
      </trkpt>
      <trkpt lat="59.9846263782" lon="23.4206097616">
        <ele>11.8</ele>
        <time>2012-03-15T18:22:28Z</time>
      </trkpt>
      <trkpt lat="59.9845561379" lon="23.4208903876">
        <ele>11.2</ele>
        <time>2012-03-15T18:22:33Z</time>
      </trkpt>
      <trkpt lat="59.9844800303" lon="23.4212587721">
        <ele>10.8</ele>
        <time>2012-03-15T18:22:41Z</time>
      </trkpt>
      <trkpt lat="59.9844304094" lon="23.4215691539">
        <ele>10.8</ele>
        <time>2012-03-15T18:22:47Z</time>
      </trkpt>
      <trkpt lat="59.9843789446" lon="23.4218791166">
        <ele>10.6</ele>
        <time>2012-03-15T18:22:53Z</time>
      </trkpt>
      <trkpt lat="59.9843311677" lon="23.4221744109">
        <ele>11.6</ele>
        <time>2012-03-15T18:22:58Z</time>
      </trkpt>
      <trkpt lat="59.9842793676" lon="23.4224562104">
        <ele>12</ele>
        <time>2012-03-15T18:23:05Z</time>
      </trkpt>
      <trkpt lat="59.9842338539" lon="23.4226750618">
        <ele>12.8</ele>
        <time>2012-03-15T18:23:10Z</time>
      </trkpt>
      <trkpt lat="59.9841823052" lon="23.4229314641">
        <ele>13.6</ele>
        <time>2012-03-15T18:23:16Z</time>
      </trkpt>
      <trkpt lat="59.9841390546" lon="23.4232043788">
        <ele>14</ele>
        <time>2012-03-15T18:23:22Z</time>
      </trkpt>
      <trkpt lat="59.9840814709" lon="23.4235376431">
        <ele>14.4</ele>
        <time>2012-03-15T18:23:29Z</time>
      </trkpt>
      <trkpt lat="59.9840359572" lon="23.4238357035">
        <ele>15.4</ele>
        <time>2012-03-15T18:23:35Z</time>
      </trkpt>
      <trkpt lat="59.9839929581" lon="23.4241476778">
        <ele>16</ele>
        <time>2012-03-15T18:23:41Z</time>
      </trkpt>
      <trkpt lat="59.9839797147" lon="23.4244704648">
        <ele>16.2</ele>
        <time>2012-03-15T18:23:47Z</time>
      </trkpt>
      <trkpt lat="59.9839719195" lon="23.4248053217">
        <ele>16.4</ele>
        <time>2012-03-15T18:23:53Z</time>
      </trkpt>
      <trkpt lat="59.9839606877" lon="23.4248988637">
        <ele>16.4</ele>
        <time>2012-03-15T18:23:55Z</time>
      </trkpt>
      <trkpt lat="59.9839915331" lon="23.4251252588">
        <ele>16.6</ele>
        <time>2012-03-15T18:24:01Z</time>
      </trkpt>
      <trkpt lat="59.9839361288" lon="23.4252591177">
        <ele>16.6</ele>
        <time>2012-03-15T18:24:03Z</time>
      </trkpt>
      <trkpt lat="59.983725324" lon="23.4253237422">
        <ele>16.6</ele>
        <time>2012-03-15T18:24:13Z</time>
      </trkpt>
      <trkpt lat="59.98372348" lon="23.4253083195">
        <ele>16.6</ele>
        <time>2012-03-15T18:24:14Z</time>
      </trkpt>
      <trkpt lat="59.9837064647" lon="23.425329861">
        <ele>16.6</ele>
        <time>2012-03-15T18:24:16Z</time>
      </trkpt>
      <trkpt lat="59.9835385753" lon="23.4253591976">
        <ele>16.6</ele>
        <time>2012-03-15T18:24:22Z</time>
      </trkpt>
      <trkpt lat="59.983439585" lon="23.4253916356">
        <ele>16.2</ele>
        <time>2012-03-15T18:24:25Z</time>
      </trkpt>
      <trkpt lat="59.9833313747" lon="23.4257329465">
        <ele>15.2</ele>
        <time>2012-03-15T18:24:33Z</time>
      </trkpt>
      <trkpt lat="59.9833953286" lon="23.4260186855">
        <ele>15</ele>
        <time>2012-03-15T18:24:39Z</time>
      </trkpt>
      <trkpt lat="59.9833862761" lon="23.4262915164">
        <ele>14.8</ele>
        <time>2012-03-15T18:24:44Z</time>
      </trkpt>
      <trkpt lat="59.9833153653" lon="23.4266615772">
        <ele>14.6</ele>
        <time>2012-03-15T18:24:51Z</time>
      </trkpt>
      <trkpt lat="59.9832490644" lon="23.4270245973">
        <ele>14.6</ele>
        <time>2012-03-15T18:24:58Z</time>
      </trkpt>
      <trkpt lat="59.9831438716" lon="23.4276001824">
        <ele>14.6</ele>
        <time>2012-03-15T18:25:08Z</time>
      </trkpt>
      <trkpt lat="59.9830822646" lon="23.4279436727">
        <ele>14.6</ele>
        <time>2012-03-15T18:25:15Z</time>
      </trkpt>
      <trkpt lat="59.98302049" lon="23.4283201038">
        <ele>14.6</ele>
        <time>2012-03-15T18:25:23Z</time>
      </trkpt>
      <trkpt lat="59.9829653371" lon="23.4286791844">
        <ele>14.6</ele>
        <time>2012-03-15T18:25:30Z</time>
      </trkpt>
      <trkpt lat="59.9829286244" lon="23.4288925037">
        <ele>14.6</ele>
        <time>2012-03-15T18:25:33Z</time>
      </trkpt>
      <trkpt lat="59.9828867149" lon="23.4291757281">
        <ele>14.6</ele>
        <time>2012-03-15T18:25:38Z</time>
      </trkpt>
      <trkpt lat="59.9828212523" lon="23.429567582">
        <ele>14.6</ele>
        <time>2012-03-15T18:25:46Z</time>
      </trkpt>
      <trkpt lat="59.9827773311" lon="23.429864888">
        <ele>14.6</ele>
        <time>2012-03-15T18:25:51Z</time>
      </trkpt>
      <trkpt lat="59.9827601482" lon="23.4299521435">
        <ele>14.6</ele>
        <time>2012-03-15T18:25:56Z</time>
      </trkpt>
      <trkpt lat="59.9826931768" lon="23.4301430832">
        <ele>14.6</ele>
        <time>2012-03-15T18:26:03Z</time>
      </trkpt>
      <trkpt lat="59.9825405424" lon="23.4303652874">
        <ele>14.6</ele>
        <time>2012-03-15T18:26:08Z</time>
      </trkpt>
      <trkpt lat="59.9823739941" lon="23.4304805385">
        <ele>13.8</ele>
        <time>2012-03-15T18:26:13Z</time>
      </trkpt>
      <trkpt lat="59.9822142351" lon="23.4305060195">
        <ele>13.2</ele>
        <time>2012-03-15T18:26:18Z</time>
      </trkpt>
      <trkpt lat="59.9820853214" lon="23.4304679657">
        <ele>13</ele>
        <time>2012-03-15T18:26:23Z</time>
      </trkpt>
      <trkpt lat="59.9819363751" lon="23.4304487711">
        <ele>12.8</ele>
        <time>2012-03-15T18:26:30Z</time>
      </trkpt>
      <trkpt lat="59.9817722575" lon="23.430508115">
        <ele>12.6</ele>
        <time>2012-03-15T18:26:37Z</time>
      </trkpt>
      <trkpt lat="59.9816777096" lon="23.4306494338">
        <ele>12.6</ele>
        <time>2012-03-15T18:26:42Z</time>
      </trkpt>
      <trkpt lat="59.9815736064" lon="23.4309050817">
        <ele>12.6</ele>
        <time>2012-03-15T18:26:49Z</time>
      </trkpt>
      <trkpt lat="59.9815091496" lon="23.4311068341">
        <ele>12.6</ele>
        <time>2012-03-15T18:26:53Z</time>
      </trkpt>
      <trkpt lat="59.9814374844" lon="23.4314022961">
        <ele>12.6</ele>
        <time>2012-03-15T18:27:00Z</time>
      </trkpt>
      <trkpt lat="59.9813504803" lon="23.4317149409">
        <ele>12.6</ele>
        <time>2012-03-15T18:27:06Z</time>
      </trkpt>
      <trkpt lat="59.9812215666" lon="23.4321984927">
        <ele>12.6</ele>
        <time>2012-03-15T18:27:17Z</time>
      </trkpt>
      <trkpt lat="59.9811548467" lon="23.4324499497">
        <ele>12.4</ele>
        <time>2012-03-15T18:27:22Z</time>
      </trkpt>
      <trkpt lat="59.9810678426" lon="23.4327910931">
        <ele>11.2</ele>
        <time>2012-03-15T18:27:30Z</time>
      </trkpt>
      <trkpt lat="59.9809710317" lon="23.4331420432">
        <ele>10.8</ele>
        <time>2012-03-15T18:27:38Z</time>
      </trkpt>
      <trkpt lat="59.9809003722" lon="23.4334462224">
        <ele>10.6</ele>
        <time>2012-03-15T18:27:45Z</time>
      </trkpt>
      <trkpt lat="59.9808200736" lon="23.4337535028">
        <ele>10.6</ele>
        <time>2012-03-15T18:27:51Z</time>
      </trkpt>
      <trkpt lat="59.9807515935" lon="23.4340119168">
        <ele>10.6</ele>
        <time>2012-03-15T18:27:57Z</time>
      </trkpt>
      <trkpt lat="59.9806845383" lon="23.4342681515">
        <ele>10.6</ele>
        <time>2012-03-15T18:28:03Z</time>
      </trkpt>
      <trkpt lat="59.9805963607" lon="23.4346108036">
        <ele>10.4</ele>
        <time>2012-03-15T18:28:12Z</time>
      </trkpt>
      <trkpt lat="59.9805355919" lon="23.4348423116">
        <ele>10.4</ele>
        <time>2012-03-15T18:28:18Z</time>
      </trkpt>
      <trkpt lat="59.980469794" lon="23.4350984625">
        <ele>10.4</ele>
        <time>2012-03-15T18:28:23Z</time>
      </trkpt>
      <trkpt lat="59.9803756653" lon="23.4354004624">
        <ele>10.4</ele>
        <time>2012-03-15T18:28:31Z</time>
      </trkpt>
      <trkpt lat="59.9802814527" lon="23.4355380932">
        <ele>10.4</ele>
        <time>2012-03-15T18:28:36Z</time>
      </trkpt>
      <trkpt lat="59.9801945324" lon="23.4355017995">
        <ele>10.4</ele>
        <time>2012-03-15T18:28:39Z</time>
      </trkpt>
      <trkpt lat="59.9800676305" lon="23.4353755681">
        <ele>10.4</ele>
        <time>2012-03-15T18:28:45Z</time>
      </trkpt>
      <trkpt lat="59.9798797921" lon="23.4353039029">
        <ele>10.4</ele>
        <time>2012-03-15T18:28:52Z</time>
      </trkpt>
      <trkpt lat="59.9797892676" lon="23.4353655098">
        <ele>10.4</ele>
        <time>2012-03-15T18:28:56Z</time>
      </trkpt>
      <trkpt lat="59.9796484517" lon="23.4354887238">
        <ele>10.4</ele>
        <time>2012-03-15T18:29:02Z</time>
      </trkpt>
      <trkpt lat="59.9794876868" lon="23.4356266898">
        <ele>10.4</ele>
        <time>2012-03-15T18:29:09Z</time>
      </trkpt>
      <trkpt lat="59.9793565939" lon="23.4357359898">
        <ele>10.4</ele>
        <time>2012-03-15T18:29:15Z</time>
      </trkpt>
      <trkpt lat="59.9792129281" lon="23.4357894663">
        <ele>10.4</ele>
        <time>2012-03-15T18:29:21Z</time>
      </trkpt>
      <trkpt lat="59.9790730342" lon="23.4357716129">
        <ele>10.4</ele>
        <time>2012-03-15T18:29:26Z</time>
      </trkpt>
      <trkpt lat="59.9788994451" lon="23.4357415219">
        <ele>10.4</ele>
        <time>2012-03-15T18:29:33Z</time>
      </trkpt>
      <trkpt lat="59.9787487385" lon="23.4356911466">
        <ele>10</ele>
        <time>2012-03-15T18:29:39Z</time>
      </trkpt>
      <trkpt lat="59.9785994569" lon="23.4355717046">
        <ele>9.4</ele>
        <time>2012-03-15T18:29:45Z</time>
      </trkpt>
      <trkpt lat="59.9784461519" lon="23.4353434654">
        <ele>8.8</ele>
        <time>2012-03-15T18:29:52Z</time>
      </trkpt>
      <trkpt lat="59.9782910029" lon="23.4350977919">
        <ele>8.6</ele>
        <time>2012-03-15T18:29:58Z</time>
      </trkpt>
      <trkpt lat="59.9781596586" lon="23.4349054273">
        <ele>8.6</ele>
        <time>2012-03-15T18:30:05Z</time>
      </trkpt>
      <trkpt lat="59.9780235365" lon="23.4346495279">
        <ele>8.4</ele>
        <time>2012-03-15T18:30:12Z</time>
      </trkpt>
      <trkpt lat="59.9778003265" lon="23.4342570036">
        <ele>9</ele>
        <time>2012-03-15T18:30:23Z</time>
      </trkpt>
      <trkpt lat="59.9776466025" lon="23.4340635493">
        <ele>9.8</ele>
        <time>2012-03-15T18:30:31Z</time>
      </trkpt>
      <trkpt lat="59.9775036911" lon="23.4338744536">
        <ele>10.2</ele>
        <time>2012-03-15T18:30:37Z</time>
      </trkpt>
      <trkpt lat="59.9773432615" lon="23.4336546802">
        <ele>10.4</ele>
        <time>2012-03-15T18:30:44Z</time>
      </trkpt>
      <trkpt lat="59.9771907109" lon="23.4334453842">
        <ele>10.4</ele>
        <time>2012-03-15T18:30:51Z</time>
      </trkpt>
      <trkpt lat="59.9770389985" lon="23.43323986">
        <ele>10.4</ele>
        <time>2012-03-15T18:30:58Z</time>
      </trkpt>
      <trkpt lat="59.9769267649" lon="23.4330786761">
        <ele>10.6</ele>
        <time>2012-03-15T18:31:03Z</time>
      </trkpt>
      <trkpt lat="59.9767727894" lon="23.4328750797">
        <ele>10.6</ele>
        <time>2012-03-15T18:31:10Z</time>
      </trkpt>
      <trkpt lat="59.9765784131" lon="23.4326788594">
        <ele>10.6</ele>
        <time>2012-03-15T18:31:18Z</time>
      </trkpt>
      <trkpt lat="59.9764070871" lon="23.4325408095">
        <ele>10.6</ele>
        <time>2012-03-15T18:31:25Z</time>
      </trkpt>
      <trkpt lat="59.976335338" lon="23.4325056894">
        <ele>10.6</ele>
        <time>2012-03-15T18:31:30Z</time>
      </trkpt>
      <trkpt lat="59.9762823644" lon="23.4324465132">
        <ele>10.6</ele>
        <time>2012-03-15T18:31:37Z</time>
      </trkpt>
      <trkpt lat="59.976274234" lon="23.4324423222">
        <ele>10.6</ele>
        <time>2012-03-15T18:31:38Z</time>
      </trkpt>
      <trkpt lat="59.9761562168" lon="23.4325227884">
        <ele>10.6</ele>
        <time>2012-03-15T18:31:45Z</time>
      </trkpt>
      <trkpt lat="59.9759696357" lon="23.432671651">
        <ele>11.2</ele>
        <time>2012-03-15T18:31:52Z</time>
      </trkpt>
      <trkpt lat="59.9758194321" lon="23.4328094494">
        <ele>11.8</ele>
        <time>2012-03-15T18:31:58Z</time>
      </trkpt>
      <trkpt lat="59.9756473517" lon="23.4329348427">
        <ele>12.2</ele>
        <time>2012-03-15T18:32:04Z</time>
      </trkpt>
      <trkpt lat="59.9756007483" lon="23.4329196714">
        <ele>12.2</ele>
        <time>2012-03-15T18:32:06Z</time>
      </trkpt>
      <trkpt lat="59.9754653806" lon="23.4327695516">
        <ele>12.4</ele>
        <time>2012-03-15T18:32:12Z</time>
      </trkpt>
      <trkpt lat="59.9754365469" lon="23.4327185058">
        <ele>12.4</ele>
        <time>2012-03-15T18:32:15Z</time>
      </trkpt>
      <trkpt lat="59.9754257342" lon="23.432715656">
        <ele>12.4</ele>
        <time>2012-03-15T18:32:25Z</time>
      </trkpt>
      <trkpt lat="59.9752986646" lon="23.4325965492">
        <ele>12.6</ele>
        <time>2012-03-15T18:32:31Z</time>
      </trkpt>
      <trkpt lat="59.9751469523" lon="23.4324316772">
        <ele>12.6</ele>
        <time>2012-03-15T18:32:36Z</time>
      </trkpt>
      <trkpt lat="59.9749784761" lon="23.4322611055">
        <ele>12.6</ele>
        <time>2012-03-15T18:32:41Z</time>
      </trkpt>
      <trkpt lat="59.9748879515" lon="23.4321741014">
        <ele>12.6</ele>
        <time>2012-03-15T18:32:44Z</time>
      </trkpt>
      <trkpt lat="59.9748075691" lon="23.4320813138">
        <ele>12.6</ele>
        <time>2012-03-15T18:32:46Z</time>
      </trkpt>
      <trkpt lat="59.9746487321" lon="23.4318703414">
        <ele>12</ele>
        <time>2012-03-15T18:32:52Z</time>
      </trkpt>
      <trkpt lat="59.9746389253" lon="23.4318152723">
        <ele>11.6</ele>
        <time>2012-03-15T18:32:55Z</time>
      </trkpt>
      <trkpt lat="59.9746345667" lon="23.4318365623">
        <ele>11.4</ele>
        <time>2012-03-15T18:32:56Z</time>
      </trkpt>
      <trkpt lat="59.974546892" lon="23.4319130052">
        <ele>11.2</ele>
        <time>2012-03-15T18:33:00Z</time>
      </trkpt>
      <trkpt lat="59.9744008793" lon="23.4319477063">
        <ele>10.8</ele>
        <time>2012-03-15T18:33:06Z</time>
      </trkpt>
      <trkpt lat="59.9742211714" lon="23.4319545794">
        <ele>10.6</ele>
        <time>2012-03-15T18:33:14Z</time>
      </trkpt>
      <trkpt lat="59.9740581434" lon="23.431977462">
        <ele>10</ele>
        <time>2012-03-15T18:33:22Z</time>
      </trkpt>
      <trkpt lat="59.9738894996" lon="23.4320041165">
        <ele>9.2</ele>
        <time>2012-03-15T18:33:29Z</time>
      </trkpt>
      <trkpt lat="59.9737007392" lon="23.4320547432">
        <ele>8.8</ele>
        <time>2012-03-15T18:33:38Z</time>
      </trkpt>
      <trkpt lat="59.9735383818" lon="23.4320989996">
        <ele>8.6</ele>
        <time>2012-03-15T18:33:46Z</time>
      </trkpt>
      <trkpt lat="59.9733838196" lon="23.4321178589">
        <ele>8.6</ele>
        <time>2012-03-15T18:33:54Z</time>
      </trkpt>
      <trkpt lat="59.973247949" lon="23.4321429207">
        <ele>8.6</ele>
        <time>2012-03-15T18:34:00Z</time>
      </trkpt>
      <trkpt lat="59.9731066302" lon="23.4321849141">
        <ele>8.6</ele>
        <time>2012-03-15T18:34:06Z</time>
      </trkpt>
      <trkpt lat="59.972936729" lon="23.4322865865">
        <ele>8.6</ele>
        <time>2012-03-15T18:34:14Z</time>
      </trkpt>
      <trkpt lat="59.9728027025" lon="23.4324088784">
        <ele>8.4</ele>
        <time>2012-03-15T18:34:20Z</time>
      </trkpt>
      <trkpt lat="59.9727654868" lon="23.4324296655">
        <ele>8.4</ele>
        <time>2012-03-15T18:34:24Z</time>
      </trkpt>
      <trkpt lat="59.9727087414" lon="23.4325272309">
        <ele>8.4</ele>
        <time>2012-03-15T18:35:03Z</time>
      </trkpt>
      <trkpt lat="59.9726133553" lon="23.4326315017">
        <ele>8.4</ele>
        <time>2012-03-15T18:35:08Z</time>
      </trkpt>
      <trkpt lat="59.9725909757" lon="23.4326140673">
        <ele>8.4</ele>
        <time>2012-03-15T18:35:09Z</time>
      </trkpt>
      <trkpt lat="59.9725090845" lon="23.4324854052">
        <ele>8.4</ele>
        <time>2012-03-15T18:35:13Z</time>
      </trkpt>
      <trkpt lat="59.9723907321" lon="23.4323299209">
        <ele>8.4</ele>
        <time>2012-03-15T18:35:20Z</time>
      </trkpt>
      <trkpt lat="59.9723118584" lon="23.4323932043">
        <ele>8.4</ele>
        <time>2012-03-15T18:35:24Z</time>
      </trkpt>
      <trkpt lat="59.9722029775" lon="23.4325584115">
        <ele>8.4</ele>
        <time>2012-03-15T18:35:30Z</time>
      </trkpt>
      <trkpt lat="59.9720816076" lon="23.432759158">
        <ele>8.4</ele>
        <time>2012-03-15T18:35:37Z</time>
      </trkpt>
      <trkpt lat="59.9719821983" lon="23.4329532828">
        <ele>8</ele>
        <time>2012-03-15T18:35:43Z</time>
      </trkpt>
      <trkpt lat="59.9719162327" lon="23.4331871378">
        <ele>7.2</ele>
        <time>2012-03-15T18:35:49Z</time>
      </trkpt>
      <trkpt lat="59.9719656859" lon="23.4334002057">
        <ele>7</ele>
        <time>2012-03-15T18:35:54Z</time>
      </trkpt>
      <trkpt lat="59.9720992096" lon="23.4336235834">
        <ele>6.8</ele>
        <time>2012-03-15T18:36:01Z</time>
      </trkpt>
      <trkpt lat="59.9722204957" lon="23.433815948">
        <ele>6.6</ele>
        <time>2012-03-15T18:36:07Z</time>
      </trkpt>
      <trkpt lat="59.9724567815" lon="23.4343608553">
        <ele>6.6</ele>
        <time>2012-03-15T18:36:23Z</time>
      </trkpt>
      <trkpt lat="59.9724729585" lon="23.4345924472">
        <ele>6.6</ele>
        <time>2012-03-15T18:36:29Z</time>
      </trkpt>
      <trkpt lat="59.9724293726" lon="23.4349433135">
        <ele>6.4</ele>
        <time>2012-03-15T18:36:37Z</time>
      </trkpt>
      <trkpt lat="59.9724043108" lon="23.4351733967">
        <ele>6.4</ele>
        <time>2012-03-15T18:36:42Z</time>
      </trkpt>
      <trkpt lat="59.9724076635" lon="23.4353975287">
        <ele>6.4</ele>
        <time>2012-03-15T18:36:47Z</time>
      </trkpt>
      <trkpt lat="59.9725464678" lon="23.4356224151">
        <ele>6.4</ele>
        <time>2012-03-15T18:36:55Z</time>
      </trkpt>
      <trkpt lat="59.9726908879" lon="23.4357659132">
        <ele>6.4</ele>
        <time>2012-03-15T18:37:02Z</time>
      </trkpt>
      <trkpt lat="59.9727968351" lon="23.4358933181">
        <ele>6.4</ele>
        <time>2012-03-15T18:37:08Z</time>
      </trkpt>
      <trkpt lat="59.9727632237" lon="23.4360486347">
        <ele>6.4</ele>
        <time>2012-03-15T18:37:13Z</time>
      </trkpt>
      <trkpt lat="59.9727277683" lon="23.4360941484">
        <ele>6.4</ele>
        <time>2012-03-15T18:37:14Z</time>
      </trkpt>
      <trkpt lat="59.9726123495" lon="23.4362775444">
        <ele>6.4</ele>
        <time>2012-03-15T18:37:21Z</time>
      </trkpt>
      <trkpt lat="59.9725849407" lon="23.4363266623">
        <ele>6.4</ele>
        <time>2012-03-15T18:37:25Z</time>
      </trkpt>
      <trkpt lat="59.9724958411" lon="23.4364111519">
        <ele>6.4</ele>
        <time>2012-03-15T18:37:33Z</time>
      </trkpt>
      <trkpt lat="59.972373633" lon="23.4365424962">
        <ele>6.4</ele>
        <time>2012-03-15T18:37:39Z</time>
      </trkpt>
      <trkpt lat="59.9721854593" lon="23.4367429075">
        <ele>6.4</ele>
        <time>2012-03-15T18:37:44Z</time>
      </trkpt>
      <trkpt lat="59.9720078469" lon="23.4369123057">
        <ele>6.4</ele>
        <time>2012-03-15T18:37:49Z</time>
      </trkpt>
      <trkpt lat="59.9718928472" lon="23.4370340108">
        <ele>6.4</ele>
        <time>2012-03-15T18:37:54Z</time>
      </trkpt>
      <trkpt lat="59.9717693818" lon="23.4371678698">
        <ele>6.4</ele>
        <time>2012-03-15T18:38:00Z</time>
      </trkpt>
      <trkpt lat="59.9716469223" lon="23.4372991303">
        <ele>6.4</ele>
        <time>2012-03-15T18:38:06Z</time>
      </trkpt>
      <trkpt lat="59.971520607" lon="23.4373927562">
        <ele>6.4</ele>
        <time>2012-03-15T18:38:12Z</time>
      </trkpt>
      <trkpt lat="59.9713545616" lon="23.4374952668">
        <ele>7.6</ele>
        <time>2012-03-15T18:38:20Z</time>
      </trkpt>
      <trkpt lat="59.9712367121" lon="23.4375608971">
        <ele>8</ele>
        <time>2012-03-15T18:38:25Z</time>
      </trkpt>
      <trkpt lat="59.9710509692" lon="23.4376393517">
        <ele>8.2</ele>
        <time>2012-03-15T18:38:32Z</time>
      </trkpt>
      <trkpt lat="59.9708859296" lon="23.4376996175">
        <ele>8.6</ele>
        <time>2012-03-15T18:38:39Z</time>
      </trkpt>
      <trkpt lat="59.9707665713" lon="23.4377548542">
        <ele>9.4</ele>
        <time>2012-03-15T18:38:44Z</time>
      </trkpt>
      <trkpt lat="59.9706007773" lon="23.4378239211">
        <ele>10</ele>
        <time>2012-03-15T18:38:51Z</time>
      </trkpt>
      <trkpt lat="59.9704491488" lon="23.4378803313">
        <ele>10.4</ele>
        <time>2012-03-15T18:38:57Z</time>
      </trkpt>
      <trkpt lat="59.9702836901" lon="23.4379596241">
        <ele>10.4</ele>
        <time>2012-03-15T18:39:04Z</time>
      </trkpt>
      <trkpt lat="59.9701194048" lon="23.4380001086">
        <ele>10.6</ele>
        <time>2012-03-15T18:39:11Z</time>
      </trkpt>
      <trkpt lat="59.9699485817" lon="23.4381707641">
        <ele>10.6</ele>
        <time>2012-03-15T18:39:19Z</time>
      </trkpt>
      <trkpt lat="59.9698903275" lon="23.4383570938">
        <ele>10.6</ele>
        <time>2012-03-15T18:39:24Z</time>
      </trkpt>
      <trkpt lat="59.9698033234" lon="23.4386481133">
        <ele>10.6</ele>
        <time>2012-03-15T18:39:31Z</time>
      </trkpt>
      <trkpt lat="59.9697387827" lon="23.4388356164">
        <ele>10.6</ele>
        <time>2012-03-15T18:39:36Z</time>
      </trkpt>
      <trkpt lat="59.9696845518" lon="23.439045583">
        <ele>10.6</ele>
        <time>2012-03-15T18:39:41Z</time>
      </trkpt>
      <trkpt lat="59.9696332546" lon="23.4392745765">
        <ele>10.6</ele>
        <time>2012-03-15T18:39:46Z</time>
      </trkpt>
      <trkpt lat="59.9696235316" lon="23.4393134686">
        <ele>10.6</ele>
        <time>2012-03-15T18:39:47Z</time>
      </trkpt>
      <trkpt lat="59.9695649421" lon="23.4395468206">
        <ele>10.6</ele>
        <time>2012-03-15T18:39:53Z</time>
      </trkpt>
      <trkpt lat="59.9694859846" lon="23.4398516704">
        <ele>11.4</ele>
        <time>2012-03-15T18:40:01Z</time>
      </trkpt>
      <trkpt lat="59.9693197716" lon="23.4405629584">
        <ele>12.4</ele>
        <time>2012-03-15T18:40:18Z</time>
      </trkpt>
      <trkpt lat="59.9692146625" lon="23.4408940434">
        <ele>12.6</ele>
        <time>2012-03-15T18:40:26Z</time>
      </trkpt>
      <trkpt lat="59.9690936279" lon="23.4413204307">
        <ele>13.6</ele>
        <time>2012-03-15T18:40:37Z</time>
      </trkpt>
      <trkpt lat="59.969067644" lon="23.4413438162">
        <ele>13.8</ele>
        <time>2012-03-15T18:40:39Z</time>
      </trkpt>
      <trkpt lat="59.9690057018" lon="23.4416282979">
        <ele>14.2</ele>
        <time>2012-03-15T18:40:46Z</time>
      </trkpt>
      <trkpt lat="59.968952812" lon="23.4418322295">
        <ele>14.6</ele>
        <time>2012-03-15T18:40:51Z</time>
      </trkpt>
      <trkpt lat="59.968882404" lon="23.4420958403">
        <ele>15.6</ele>
        <time>2012-03-15T18:40:57Z</time>
      </trkpt>
      <trkpt lat="59.968810655" lon="23.4423731973">
        <ele>16.2</ele>
        <time>2012-03-15T18:41:03Z</time>
      </trkpt>
      <trkpt lat="59.9687363075" lon="23.4426889435">
        <ele>16.4</ele>
        <time>2012-03-15T18:41:10Z</time>
      </trkpt>
      <trkpt lat="59.9686692523" lon="23.443004522">
        <ele>16.6</ele>
        <time>2012-03-15T18:41:17Z</time>
      </trkpt>
      <trkpt lat="59.9686061366" lon="23.4432791969">
        <ele>16.6</ele>
        <time>2012-03-15T18:41:23Z</time>
      </trkpt>
      <trkpt lat="59.9685106667" lon="23.443582454">
        <ele>16.6</ele>
        <time>2012-03-15T18:41:30Z</time>
      </trkpt>
      <trkpt lat="59.9684169571" lon="23.4438719649">
        <ele>16.8</ele>
        <time>2012-03-15T18:41:37Z</time>
      </trkpt>
      <trkpt lat="59.9683942422" lon="23.4439306382">
        <ele>16.8</ele>
        <time>2012-03-15T18:41:39Z</time>
      </trkpt>
      <trkpt lat="59.9683440346" lon="23.4441180575">
        <ele>16.4</ele>
        <time>2012-03-15T18:41:44Z</time>
      </trkpt>
      <trkpt lat="59.9683358203" lon="23.4441385093">
        <ele>16.2</ele>
        <time>2012-03-15T18:41:45Z</time>
      </trkpt>
      <trkpt lat="59.9682886302" lon="23.4443204803">
        <ele>15.6</ele>
        <time>2012-03-15T18:41:50Z</time>
      </trkpt>
      <trkpt lat="59.9681965131" lon="23.4445843425">
        <ele>15.2</ele>
        <time>2012-03-15T18:41:57Z</time>
      </trkpt>
      <trkpt lat="59.9681037255" lon="23.4449035253">
        <ele>14.8</ele>
        <time>2012-03-15T18:42:04Z</time>
      </trkpt>
      <trkpt lat="59.9680277017" lon="23.4451653759">
        <ele>13.8</ele>
        <time>2012-03-15T18:42:10Z</time>
      </trkpt>
      <trkpt lat="59.9679501691" lon="23.4454142345">
        <ele>13.2</ele>
        <time>2012-03-15T18:42:16Z</time>
      </trkpt>
      <trkpt lat="59.9678916634" lon="23.4456053418">
        <ele>13</ele>
        <time>2012-03-15T18:42:21Z</time>
      </trkpt>
      <trkpt lat="59.9678173998" lon="23.445860403">
        <ele>12.8</ele>
        <time>2012-03-15T18:42:27Z</time>
      </trkpt>
      <trkpt lat="59.9677192478" lon="23.4461810945">
        <ele>12.8</ele>
        <time>2012-03-15T18:42:35Z</time>
      </trkpt>
      <trkpt lat="59.9676623347" lon="23.4464209007">
        <ele>12.4</ele>
        <time>2012-03-15T18:42:41Z</time>
      </trkpt>
      <trkpt lat="59.9676667771" lon="23.4464333059">
        <ele>11.6</ele>
        <time>2012-03-15T18:42:47Z</time>
      </trkpt>
      <trkpt lat="59.9676361831" lon="23.4465032109">
        <ele>11</ele>
        <time>2012-03-15T18:42:55Z</time>
      </trkpt>
      <trkpt lat="59.9675475864" lon="23.4467244931">
        <ele>10.8</ele>
        <time>2012-03-15T18:43:00Z</time>
      </trkpt>
      <trkpt lat="59.9673830497" lon="23.447145935">
        <ele>10.8</ele>
        <time>2012-03-15T18:43:06Z</time>
      </trkpt>
      <trkpt lat="59.9672557287" lon="23.4474716556">
        <ele>10.8</ele>
        <time>2012-03-15T18:43:11Z</time>
      </trkpt>
      <trkpt lat="59.9671259769" lon="23.4477611665">
        <ele>10.6</ele>
        <time>2012-03-15T18:43:16Z</time>
      </trkpt>
      <trkpt lat="59.9670901862" lon="23.4478492602">
        <ele>10.6</ele>
        <time>2012-03-15T18:43:18Z</time>
      </trkpt>
      <trkpt lat="59.9669891004" lon="23.4480918324">
        <ele>10.6</ele>
        <time>2012-03-15T18:43:25Z</time>
      </trkpt>
      <trkpt lat="59.9668987436" lon="23.4483302975">
        <ele>10.6</ele>
        <time>2012-03-15T18:43:32Z</time>
      </trkpt>
      <trkpt lat="59.9667787986" lon="23.4486464627">
        <ele>10.6</ele>
        <time>2012-03-15T18:43:41Z</time>
      </trkpt>
      <trkpt lat="59.9666807303" lon="23.4488793957">
        <ele>10.6</ele>
        <time>2012-03-15T18:43:47Z</time>
      </trkpt>
      <trkpt lat="59.9665701731" lon="23.4491336188">
        <ele>10.6</ele>
        <time>2012-03-15T18:43:54Z</time>
      </trkpt>
      <trkpt lat="59.9664819955" lon="23.4493470219">
        <ele>10.6</ele>
        <time>2012-03-15T18:44:00Z</time>
      </trkpt>
      <trkpt lat="59.9662906367" lon="23.4498674541">
        <ele>10.6</ele>
        <time>2012-03-15T18:44:12Z</time>
      </trkpt>
      <trkpt lat="59.9662847694" lon="23.4499120458">
        <ele>10.6</ele>
        <time>2012-03-15T18:44:13Z</time>
      </trkpt>
      <trkpt lat="59.9663140222" lon="23.4500646802">
        <ele>10.6</ele>
        <time>2012-03-15T18:44:16Z</time>
      </trkpt>
      <trkpt lat="59.9665146849" lon="23.4502401972">
        <ele>10.6</ele>
        <time>2012-03-15T18:44:25Z</time>
      </trkpt>
      <trkpt lat="59.9666920459" lon="23.4503502516">
        <ele>9.8</ele>
        <time>2012-03-15T18:44:33Z</time>
      </trkpt>
      <trkpt lat="59.9668191993" lon="23.4504499123">
        <ele>9.2</ele>
        <time>2012-03-15T18:44:38Z</time>
      </trkpt>
      <trkpt lat="59.9669722528" lon="23.4505442087">
        <ele>8.4</ele>
        <time>2012-03-15T18:44:45Z</time>
      </trkpt>
      <trkpt lat="59.9671205286" lon="23.4506548498">
        <ele>7.4</ele>
        <time>2012-03-15T18:44:52Z</time>
      </trkpt>
      <trkpt lat="59.9672494423" lon="23.4507471345">
        <ele>7</ele>
        <time>2012-03-15T18:44:58Z</time>
      </trkpt>
      <trkpt lat="59.9673698902" lon="23.4508441131">
        <ele>5.8</ele>
        <time>2012-03-15T18:45:04Z</time>
      </trkpt>
      <trkpt lat="59.9675256259" lon="23.450991886">
        <ele>5</ele>
        <time>2012-03-15T18:45:11Z</time>
      </trkpt>
      <trkpt lat="59.9676530307" lon="23.4512130843">
        <ele>4.8</ele>
        <time>2012-03-15T18:45:18Z</time>
      </trkpt>
      <trkpt lat="59.9677588103" lon="23.4514420779">
        <ele>4.6</ele>
        <time>2012-03-15T18:45:24Z</time>
      </trkpt>
      <trkpt lat="59.9678745644" lon="23.4516858235">
        <ele>4.4</ele>
        <time>2012-03-15T18:45:31Z</time>
      </trkpt>
      <trkpt lat="59.9679903184" lon="23.451964857">
        <ele>4.4</ele>
        <time>2012-03-15T18:45:38Z</time>
      </trkpt>
      <trkpt lat="59.9681267757" lon="23.4522769151">
        <ele>4.4</ele>
        <time>2012-03-15T18:45:46Z</time>
      </trkpt>
      <trkpt lat="59.9682448767" lon="23.4525355805">
        <ele>5.2</ele>
        <time>2012-03-15T18:45:53Z</time>
      </trkpt>
      <trkpt lat="59.9683674201" lon="23.4527986884">
        <ele>5.8</ele>
        <time>2012-03-15T18:46:00Z</time>
      </trkpt>
      <trkpt lat="59.9683851897" lon="23.4528371613">
        <ele>6</ele>
        <time>2012-03-15T18:46:01Z</time>
      </trkpt>
      <trkpt lat="59.9685736148" lon="23.4532661469">
        <ele>6.2</ele>
        <time>2012-03-15T18:46:12Z</time>
      </trkpt>
      <trkpt lat="59.9686720183" lon="23.453489776">
        <ele>7.2</ele>
        <time>2012-03-15T18:46:18Z</time>
      </trkpt>
      <trkpt lat="59.9687928015" lon="23.4537553984">
        <ele>7.8</ele>
        <time>2012-03-15T18:46:25Z</time>
      </trkpt>
      <trkpt lat="59.968895396" lon="23.4539801172">
        <ele>8.2</ele>
        <time>2012-03-15T18:46:31Z</time>
      </trkpt>
      <trkpt lat="59.968984747" lon="23.4542038301">
        <ele>8.2</ele>
        <time>2012-03-15T18:46:37Z</time>
      </trkpt>
      <trkpt lat="59.9690944661" lon="23.454440954">
        <ele>8.4</ele>
        <time>2012-03-15T18:46:44Z</time>
      </trkpt>
      <trkpt lat="59.9692018382" lon="23.4547330632">
        <ele>8.4</ele>
        <time>2012-03-15T18:46:52Z</time>
      </trkpt>
      <trkpt lat="59.9693074502" lon="23.4549493163">
        <ele>8.8</ele>
        <time>2012-03-15T18:46:58Z</time>
      </trkpt>
      <trkpt lat="59.9694178398" lon="23.4551918885">
        <ele>9.8</ele>
        <time>2012-03-15T18:47:05Z</time>
      </trkpt>
      <trkpt lat="59.9694379563" lon="23.455219884">
        <ele>9.8</ele>
        <time>2012-03-15T18:47:06Z</time>
      </trkpt>
      <trkpt lat="59.9695204342" lon="23.4553788886">
        <ele>10.2</ele>
        <time>2012-03-15T18:47:11Z</time>
      </trkpt>
      <trkpt lat="59.9696195921" lon="23.4555545733">
        <ele>10.4</ele>
        <time>2012-03-15T18:47:17Z</time>
      </trkpt>
      <trkpt lat="59.969715984" lon="23.4556310162">
        <ele>10.4</ele>
        <time>2012-03-15T18:47:26Z</time>
      </trkpt>
      <trkpt lat="59.969803491" lon="23.4556221314">
        <ele>10.4</ele>
        <time>2012-03-15T18:47:31Z</time>
      </trkpt>
      <trkpt lat="59.9700005495" lon="23.4555379771">
        <ele>10.6</ele>
        <time>2012-03-15T18:47:37Z</time>
      </trkpt>
      <trkpt lat="59.9701932494" lon="23.455482908">
        <ele>10.6</ele>
        <time>2012-03-15T18:47:44Z</time>
      </trkpt>
      <trkpt lat="59.9703602168" lon="23.4554063813">
        <ele>10.6</ele>
        <time>2012-03-15T18:47:50Z</time>
      </trkpt>
      <trkpt lat="59.9705634779" lon="23.455426414">
        <ele>10.6</ele>
        <time>2012-03-15T18:47:56Z</time>
      </trkpt>
      <trkpt lat="59.97068292" lon="23.4555216324">
        <ele>10.6</ele>
        <time>2012-03-15T18:48:02Z</time>
      </trkpt>
      <trkpt lat="59.9708998435" lon="23.455698239">
        <ele>10.6</ele>
        <time>2012-03-15T18:48:12Z</time>
      </trkpt>
      <trkpt lat="59.971060776" lon="23.4558574951">
        <ele>10.6</ele>
        <time>2012-03-15T18:48:19Z</time>
      </trkpt>
      <trkpt lat="59.9712465189" lon="23.4560426513">
        <ele>10.6</ele>
        <time>2012-03-15T18:48:28Z</time>
      </trkpt>
      <trkpt lat="59.9713771927" lon="23.4561713973">
        <ele>10.6</ele>
        <time>2012-03-15T18:48:34Z</time>
      </trkpt>
      <trkpt lat="59.9715161646" lon="23.4563069326">
        <ele>10.6</ele>
        <time>2012-03-15T18:48:40Z</time>
      </trkpt>
      <trkpt lat="59.9716443239" lon="23.4564125446">
        <ele>10.6</ele>
        <time>2012-03-15T18:48:46Z</time>
      </trkpt>
      <trkpt lat="59.9717721479" lon="23.4565339145">
        <ele>11</ele>
        <time>2012-03-15T18:48:52Z</time>
      </trkpt>
      <trkpt lat="59.9718618342" lon="23.4566887282">
        <ele>11.6</ele>
        <time>2012-03-15T18:48:57Z</time>
      </trkpt>
      <trkpt lat="59.9719942682" lon="23.4568544383">
        <ele>12</ele>
        <time>2012-03-15T18:49:03Z</time>
      </trkpt>
      <trkpt lat="59.9721525185" lon="23.4570271055">
        <ele>12.8</ele>
        <time>2012-03-15T18:49:11Z</time>
      </trkpt>
      <trkpt lat="59.9722800072" lon="23.4571563544">
        <ele>13.6</ele>
        <time>2012-03-15T18:49:17Z</time>
      </trkpt>
      <trkpt lat="59.9724555242" lon="23.4573202205">
        <ele>14.2</ele>
        <time>2012-03-15T18:49:25Z</time>
      </trkpt>
      <trkpt lat="59.9726164566" lon="23.4574888643">
        <ele>14.4</ele>
        <time>2012-03-15T18:49:33Z</time>
      </trkpt>
      <trkpt lat="59.9727421851" lon="23.4576359667">
        <ele>15.2</ele>
        <time>2012-03-15T18:49:39Z</time>
      </trkpt>
      <trkpt lat="59.9728629683" lon="23.4577850807">
        <ele>16</ele>
        <time>2012-03-15T18:49:45Z</time>
      </trkpt>
      <trkpt lat="59.9729392436" lon="23.4578728392">
        <ele>16.2</ele>
        <time>2012-03-15T18:49:49Z</time>
      </trkpt>
      <trkpt lat="59.9730404131" lon="23.4580015013">
        <ele>16.4</ele>
        <time>2012-03-15T18:49:54Z</time>
      </trkpt>
      <trkpt lat="59.9731404092" lon="23.4581367852">
        <ele>16.6</ele>
        <time>2012-03-15T18:49:59Z</time>
      </trkpt>
      <trkpt lat="59.9732535649" lon="23.4581663733">
        <ele>16.6</ele>
        <time>2012-03-15T18:50:04Z</time>
      </trkpt>
      <trkpt lat="59.9732769504" lon="23.4581880824">
        <ele>16.6</ele>
        <time>2012-03-15T18:50:05Z</time>
      </trkpt>
      <trkpt lat="59.9734417385" lon="23.4584092808">
        <ele>17.6</ele>
        <time>2012-03-15T18:50:13Z</time>
      </trkpt>
      <trkpt lat="59.9735472666" lon="23.4585884858">
        <ele>18.2</ele>
        <time>2012-03-15T18:50:19Z</time>
      </trkpt>
      <trkpt lat="59.9736672116" lon="23.4587585545">
        <ele>18.4</ele>
        <time>2012-03-15T18:50:25Z</time>
      </trkpt>
      <trkpt lat="59.9738179182" lon="23.4589732988">
        <ele>18.6</ele>
        <time>2012-03-15T18:50:33Z</time>
      </trkpt>
      <trkpt lat="59.9739586503" lon="23.4591923179">
        <ele>18.6</ele>
        <time>2012-03-15T18:50:40Z</time>
      </trkpt>
      <trkpt lat="59.9740537849" lon="23.4593499814">
        <ele>19.6</ele>
        <time>2012-03-15T18:50:46Z</time>
      </trkpt>
      <trkpt lat="59.9741359275" lon="23.4595069744">
        <ele>20.2</ele>
        <time>2012-03-15T18:50:52Z</time>
      </trkpt>
      <trkpt lat="59.974249586" lon="23.4597460262">
        <ele>20.6</ele>
        <time>2012-03-15T18:51:00Z</time>
      </trkpt>
      <trkpt lat="59.9743674356" lon="23.4599881793">
        <ele>21.6</ele>
        <time>2012-03-15T18:51:07Z</time>
      </trkpt>
      <trkpt lat="59.9744809265" lon="23.4602937833">
        <ele>22.4</ele>
        <time>2012-03-15T18:51:15Z</time>
      </trkpt>
      <trkpt lat="59.9745779889" lon="23.460590335">
        <ele>22.6</ele>
        <time>2012-03-15T18:51:22Z</time>
      </trkpt>
      <trkpt lat="59.9745857841" lon="23.460636184">
        <ele>22.8</ele>
        <time>2012-03-15T18:51:23Z</time>
      </trkpt>
      <trkpt lat="59.9745732112" lon="23.4608182388">
        <ele>23.6</ele>
        <time>2012-03-15T18:51:27Z</time>
      </trkpt>
      <trkpt lat="59.9746317169" lon="23.4609810991">
        <ele>24.4</ele>
        <time>2012-03-15T18:51:35Z</time>
      </trkpt>
      <trkpt lat="59.9747218223" lon="23.4612797462">
        <ele>24.6</ele>
        <time>2012-03-15T18:51:41Z</time>
      </trkpt>
      <trkpt lat="59.9747939066" lon="23.4615292754">
        <ele>24.8</ele>
        <time>2012-03-15T18:51:46Z</time>
      </trkpt>
      <trkpt lat="59.9748271828" lon="23.4618202112">
        <ele>24.8</ele>
        <time>2012-03-15T18:51:52Z</time>
      </trkpt>
      <trkpt lat="59.9748933998" lon="23.4620670581">
        <ele>25.6</ele>
        <time>2012-03-15T18:51:57Z</time>
      </trkpt>
      <trkpt lat="59.974940087" lon="23.4621865002">
        <ele>26</ele>
        <time>2012-03-15T18:52:00Z</time>
      </trkpt>
      <trkpt lat="59.9750435196" lon="23.4621545651">
        <ele>26.4</ele>
        <time>2012-03-15T18:52:05Z</time>
      </trkpt>
      <trkpt lat="59.9752047874" lon="23.4620164314">
        <ele>26.8</ele>
        <time>2012-03-15T18:52:11Z</time>
      </trkpt>
      <trkpt lat="59.9753399036" lon="23.461920291">
        <ele>26.8</ele>
        <time>2012-03-15T18:52:17Z</time>
      </trkpt>
      <trkpt lat="59.9753838247" lon="23.4618876855">
        <ele>26.8</ele>
        <time>2012-03-15T18:52:19Z</time>
      </trkpt>
      <trkpt lat="59.9755564081" lon="23.4617608673">
        <ele>27</ele>
        <time>2012-03-15T18:52:27Z</time>
      </trkpt>
      <trkpt lat="59.9756985651" lon="23.4616857655">
        <ele>27</ele>
        <time>2012-03-15T18:52:33Z</time>
      </trkpt>
      <trkpt lat="59.9758165822" lon="23.4616109989">
        <ele>27</ele>
        <time>2012-03-15T18:52:38Z</time>
      </trkpt>
      <trkpt lat="59.9759661992" lon="23.4615286887">
        <ele>27</ele>
        <time>2012-03-15T18:52:44Z</time>
      </trkpt>
      <trkpt lat="59.97611305" lon="23.4614440315">
        <ele>27</ele>
        <time>2012-03-15T18:52:50Z</time>
      </trkpt>
      <trkpt lat="59.9762212604" lon="23.4613928181">
        <ele>27</ele>
        <time>2012-03-15T18:52:55Z</time>
      </trkpt>
      <trkpt lat="59.9763392775" lon="23.4613409341">
        <ele>27</ele>
        <time>2012-03-15T18:53:00Z</time>
      </trkpt>
      <trkpt lat="59.9764839491" lon="23.4612609708">
        <ele>27</ele>
        <time>2012-03-15T18:53:06Z</time>
      </trkpt>
      <trkpt lat="59.9766200712" lon="23.4611880483">
        <ele>27</ele>
        <time>2012-03-15T18:53:12Z</time>
      </trkpt>
      <trkpt lat="59.9767688499" lon="23.4610850347">
        <ele>27</ele>
        <time>2012-03-15T18:53:19Z</time>
      </trkpt>
      <trkpt lat="59.9769224063" lon="23.4610088432">
        <ele>27</ele>
        <time>2012-03-15T18:53:25Z</time>
      </trkpt>
      <trkpt lat="59.9770773038" lon="23.4609218391">
        <ele>27</ele>
        <time>2012-03-15T18:53:32Z</time>
      </trkpt>
      <trkpt lat="59.9772108275" lon="23.4608628305">
        <ele>27</ele>
        <time>2012-03-15T18:53:38Z</time>
      </trkpt>
      <trkpt lat="59.977369916" lon="23.4607779219">
        <ele>27</ele>
        <time>2012-03-15T18:53:45Z</time>
      </trkpt>
      <trkpt lat="59.9775454329" lon="23.4606842961">
        <ele>27.8</ele>
        <time>2012-03-15T18:53:52Z</time>
      </trkpt>
      <trkpt lat="59.977679711" lon="23.4606111221">
        <ele>28.4</ele>
        <time>2012-03-15T18:53:58Z</time>
      </trkpt>
      <trkpt lat="59.9778040146" lon="23.4605920952">
        <ele>28.8</ele>
        <time>2012-03-15T18:54:03Z</time>
      </trkpt>
      <trkpt lat="59.9778605924" lon="23.4606423027">
        <ele>29.4</ele>
        <time>2012-03-15T18:54:06Z</time>
      </trkpt>
      <trkpt lat="59.9779228699" lon="23.4608733079">
        <ele>30.2</ele>
        <time>2012-03-15T18:54:11Z</time>
      </trkpt>
      <trkpt lat="59.9779419806" lon="23.4609505052">
        <ele>30.4</ele>
        <time>2012-03-15T18:54:13Z</time>
      </trkpt>
      <trkpt lat="59.97795338" lon="23.4609953484">
        <ele>30.6</ele>
        <time>2012-03-15T18:54:14Z</time>
      </trkpt>
      <trkpt lat="59.9780577347" lon="23.4611581249">
        <ele>31.6</ele>
        <time>2012-03-15T18:54:20Z</time>
      </trkpt>
      <trkpt lat="59.9780807011" lon="23.4611811751">
        <ele>31.8</ele>
        <time>2012-03-15T18:54:21Z</time>
      </trkpt>
      <trkpt lat="59.9781761709" lon="23.4613258467">
        <ele>32.4</ele>
        <time>2012-03-15T18:54:26Z</time>
      </trkpt>
      <trkpt lat="59.9781924318" lon="23.4613461309">
        <ele>32.6</ele>
        <time>2012-03-15T18:54:27Z</time>
      </trkpt>
      <trkpt lat="59.9782572239" lon="23.461358117">
        <ele>32.8</ele>
        <time>2012-03-15T18:54:31Z</time>
      </trkpt>
      <trkpt lat="59.9782905839" lon="23.4613483102">
        <ele>33.2</ele>
        <time>2012-03-15T18:54:41Z</time>
      </trkpt>
      <trkpt lat="59.9783004745" lon="23.4613547642">
        <ele>35</ele>
        <time>2012-03-15T18:55:00Z</time>
      </trkpt>
      <trkpt lat="59.9782730657" lon="23.4613746294">
        <ele>35</ele>
        <time>2012-03-15T18:55:03Z</time>
      </trkpt>
      <trkpt lat="59.9782931822" lon="23.4615040459">
        <ele>35.2</ele>
        <time>2012-03-15T18:55:07Z</time>
      </trkpt>
      <trkpt lat="59.9783248658" lon="23.4615343884">
        <ele>35.2</ele>
        <time>2012-03-15T18:55:08Z</time>
      </trkpt>
      <trkpt lat="59.9785033165" lon="23.4617214724">
        <ele>35.4</ele>
        <time>2012-03-15T18:55:15Z</time>
      </trkpt>
      <trkpt lat="59.9786518437" lon="23.4618748611">
        <ele>35.4</ele>
        <time>2012-03-15T18:55:21Z</time>
      </trkpt>
      <trkpt lat="59.9788231698" lon="23.4620962271">
        <ele>35.4</ele>
        <time>2012-03-15T18:55:27Z</time>
      </trkpt>
      <trkpt lat="59.9789798275" lon="23.462301416">
        <ele>35.4</ele>
        <time>2012-03-15T18:55:32Z</time>
      </trkpt>
      <trkpt lat="59.9791525784" lon="23.4624892544">
        <ele>35.4</ele>
        <time>2012-03-15T18:55:37Z</time>
      </trkpt>
      <trkpt lat="59.9793097391" lon="23.462656138">
        <ele>35.4</ele>
        <time>2012-03-15T18:55:42Z</time>
      </trkpt>
      <trkpt lat="59.9795080548" lon="23.4628283023">
        <ele>35.4</ele>
        <time>2012-03-15T18:55:47Z</time>
      </trkpt>
      <trkpt lat="59.9796870922" lon="23.4629839542">
        <ele>35.4</ele>
        <time>2012-03-15T18:55:52Z</time>
      </trkpt>
      <trkpt lat="59.9798300874" lon="23.463112281">
        <ele>36</ele>
        <time>2012-03-15T18:55:58Z</time>
      </trkpt>
      <trkpt lat="59.9798513774" lon="23.4631335711">
        <ele>36.2</ele>
        <time>2012-03-15T18:55:59Z</time>
      </trkpt>
      <trkpt lat="59.9800098792" lon="23.463184533">
        <ele>36.8</ele>
        <time>2012-03-15T18:56:06Z</time>
      </trkpt>
      <trkpt lat="59.9801247112" lon="23.4632582937">
        <ele>37.2</ele>
        <time>2012-03-15T18:56:11Z</time>
      </trkpt>
      <trkpt lat="59.9802334245" lon="23.4635034643">
        <ele>37.2</ele>
        <time>2012-03-15T18:56:17Z</time>
      </trkpt>
      <trkpt lat="59.9802809498" lon="23.463720807">
        <ele>37.4</ele>
        <time>2012-03-15T18:56:22Z</time>
      </trkpt>
      <trkpt lat="59.9803075204" lon="23.4637910473">
        <ele>37.4</ele>
        <time>2012-03-15T18:56:24Z</time>
      </trkpt>
      <trkpt lat="59.9804069298" lon="23.4640650516">
        <ele>37.4</ele>
        <time>2012-03-15T18:56:31Z</time>
      </trkpt>
      <trkpt lat="59.9805451473" lon="23.464335787">
        <ele>37.4</ele>
        <time>2012-03-15T18:56:39Z</time>
      </trkpt>
      <trkpt lat="59.9806947642" lon="23.4645125613">
        <ele>37.6</ele>
        <time>2012-03-15T18:56:46Z</time>
      </trkpt>
      <trkpt lat="59.9808607258" lon="23.4645803708">
        <ele>38.6</ele>
        <time>2012-03-15T18:56:53Z</time>
      </trkpt>
      <trkpt lat="59.9810407691" lon="23.4645964641">
        <ele>39.2</ele>
        <time>2012-03-15T18:57:00Z</time>
      </trkpt>
      <trkpt lat="59.9811994384" lon="23.4645982243">
        <ele>39.4</ele>
        <time>2012-03-15T18:57:06Z</time>
      </trkpt>
      <trkpt lat="59.9813506479" lon="23.4645906806">
        <ele>39.4</ele>
        <time>2012-03-15T18:57:12Z</time>
      </trkpt>
      <trkpt lat="59.9813889532" lon="23.4645887527">
        <ele>39.4</ele>
        <time>2012-03-15T18:57:15Z</time>
      </trkpt>
      <trkpt lat="59.9814472074" lon="23.4646009065">
        <ele>39.6</ele>
        <time>2012-03-15T18:57:30Z</time>
      </trkpt>
      <trkpt lat="59.9816218024" lon="23.4645808737">
        <ele>39.4</ele>
        <time>2012-03-15T18:57:35Z</time>
      </trkpt>
      <trkpt lat="59.981816933" lon="23.4645929437">
        <ele>38.6</ele>
        <time>2012-03-15T18:57:40Z</time>
      </trkpt>
      <trkpt lat="59.9819479421" lon="23.464584478">
        <ele>38.2</ele>
        <time>2012-03-15T18:57:44Z</time>
      </trkpt>
      <trkpt lat="59.9819822241" lon="23.4642964759">
        <ele>37.8</ele>
        <time>2012-03-15T18:57:49Z</time>
      </trkpt>
      <trkpt lat="59.9819569945" lon="23.4639508901">
        <ele>37.8</ele>
        <time>2012-03-15T18:57:54Z</time>
      </trkpt>
      <trkpt lat="59.9819485288" lon="23.4638890317">
        <ele>37.4</ele>
        <time>2012-03-15T18:57:55Z</time>
      </trkpt>
      <trkpt lat="59.9819112294" lon="23.4635799911">
        <ele>36.6</ele>
        <time>2012-03-15T18:58:01Z</time>
      </trkpt>
      <trkpt lat="59.981870661" lon="23.463356362">
        <ele>36</ele>
        <time>2012-03-15T18:58:07Z</time>
      </trkpt>
      <trkpt lat="59.9818330262" lon="23.4630973613">
        <ele>35.8</ele>
        <time>2012-03-15T18:58:13Z</time>
      </trkpt>
      <trkpt lat="59.9817756102" lon="23.4627495962">
        <ele>35.6</ele>
        <time>2012-03-15T18:58:21Z</time>
      </trkpt>
      <trkpt lat="59.9817287554" lon="23.4624099616">
        <ele>35.2</ele>
        <time>2012-03-15T18:58:28Z</time>
      </trkpt>
      <trkpt lat="59.9816846666" lon="23.4621388072">
        <ele>34.4</ele>
        <time>2012-03-15T18:58:33Z</time>
      </trkpt>
      <trkpt lat="59.9816408293" lon="23.4618733524">
        <ele>34</ele>
        <time>2012-03-15T18:58:38Z</time>
      </trkpt>
      <trkpt lat="59.98157939" lon="23.461506309">
        <ele>33.6</ele>
        <time>2012-03-15T18:58:45Z</time>
      </trkpt>
      <trkpt lat="59.9815452756" lon="23.4612190613">
        <ele>33.6</ele>
        <time>2012-03-15T18:58:51Z</time>
      </trkpt>
      <trkpt lat="59.9815012706" lon="23.4609368427">
        <ele>33.4</ele>
        <time>2012-03-15T18:58:57Z</time>
      </trkpt>
      <trkpt lat="59.9814440223" lon="23.4605128862">
        <ele>33.4</ele>
        <time>2012-03-15T18:59:06Z</time>
      </trkpt>
      <trkpt lat="59.981361712" lon="23.4598862554">
        <ele>33.4</ele>
        <time>2012-03-15T18:59:19Z</time>
      </trkpt>
      <trkpt lat="59.9813133484" lon="23.459583082">
        <ele>33.4</ele>
        <time>2012-03-15T18:59:25Z</time>
      </trkpt>
      <trkpt lat="59.9812816649" lon="23.4593384144">
        <ele>33.4</ele>
        <time>2012-03-15T18:59:30Z</time>
      </trkpt>
      <trkpt lat="59.981249646" lon="23.4591029668">
        <ele>33.4</ele>
        <time>2012-03-15T18:59:35Z</time>
      </trkpt>
      <trkpt lat="59.9812113407" lon="23.4588348298">
        <ele>33.4</ele>
        <time>2012-03-15T18:59:41Z</time>
      </trkpt>
      <trkpt lat="59.981174628" lon="23.4585570537">
        <ele>33.4</ele>
        <time>2012-03-15T18:59:47Z</time>
      </trkpt>
      <trkpt lat="59.9811354845" lon="23.4582885814">
        <ele>33.4</ele>
        <time>2012-03-15T18:59:53Z</time>
      </trkpt>
      <trkpt lat="59.9811100874" lon="23.4581009945">
        <ele>33.4</ele>
        <time>2012-03-15T18:59:57Z</time>
      </trkpt>
      <trkpt lat="59.9810690999" lon="23.4578285827">
        <ele>32.6</ele>
        <time>2012-03-15T19:00:03Z</time>
      </trkpt>
      <trkpt lat="59.9810254302" lon="23.4575405807">
        <ele>32</ele>
        <time>2012-03-15T19:00:09Z</time>
      </trkpt>
      <trkpt lat="59.9809961774" lon="23.4573184603">
        <ele>31.6</ele>
        <time>2012-03-15T19:00:14Z</time>
      </trkpt>
      <trkpt lat="59.9809557766" lon="23.4569751377">
        <ele>31</ele>
        <time>2012-03-15T19:00:22Z</time>
      </trkpt>
      <trkpt lat="59.9809241768" lon="23.4567163884">
        <ele>30.2</ele>
        <time>2012-03-15T19:00:28Z</time>
      </trkpt>
      <trkpt lat="59.980887045" lon="23.456480857">
        <ele>29.8</ele>
        <time>2012-03-15T19:00:33Z</time>
      </trkpt>
      <trkpt lat="59.9808335685" lon="23.4561735766">
        <ele>28.8</ele>
        <time>2012-03-15T19:00:40Z</time>
      </trkpt>
      <trkpt lat="59.9807877195" lon="23.4559137377">
        <ele>28.2</ele>
        <time>2012-03-15T19:00:45Z</time>
      </trkpt>
      <trkpt lat="59.9807477378" lon="23.4556782901">
        <ele>27.8</ele>
        <time>2012-03-15T19:00:50Z</time>
      </trkpt>
      <trkpt lat="59.9807061636" lon="23.4554279228">
        <ele>27.6</ele>
        <time>2012-03-15T19:00:55Z</time>
      </trkpt>
      <trkpt lat="59.9806669363" lon="23.4550858574">
        <ele>26.6</ele>
        <time>2012-03-15T19:01:02Z</time>
      </trkpt>
      <trkpt lat="59.9808049862" lon="23.4547361646">
        <ele>25.8</ele>
        <time>2012-03-15T19:01:11Z</time>
      </trkpt>
      <trkpt lat="59.9809566986" lon="23.4545199954">
        <ele>25.4</ele>
        <time>2012-03-15T19:01:18Z</time>
      </trkpt>
      <trkpt lat="59.9809980214" lon="23.4542671972">
        <ele>25.4</ele>
        <time>2012-03-15T19:01:23Z</time>
      </trkpt>
      <trkpt lat="59.9809569501" lon="23.453952876">
        <ele>25.2</ele>
        <time>2012-03-15T19:01:30Z</time>
      </trkpt>
      <trkpt lat="59.9809052337" lon="23.4537524648">
        <ele>24.6</ele>
        <time>2012-03-15T19:01:35Z</time>
      </trkpt>
      <trkpt lat="59.980840274" lon="23.4535596811">
        <ele>24</ele>
        <time>2012-03-15T19:01:40Z</time>
      </trkpt>
      <trkpt lat="59.9807978616" lon="23.4533553303">
        <ele>23.6</ele>
        <time>2012-03-15T19:01:45Z</time>
      </trkpt>
      <trkpt lat="59.9807498333" lon="23.4530888697">
        <ele>23.4</ele>
        <time>2012-03-15T19:01:51Z</time>
      </trkpt>
      <trkpt lat="59.9807199099" lon="23.4528115965">
        <ele>23</ele>
        <time>2012-03-15T19:01:57Z</time>
      </trkpt>
      <trkpt lat="59.9807016374" lon="23.4526746362">
        <ele>22.4</ele>
        <time>2012-03-15T19:02:01Z</time>
      </trkpt>
      <trkpt lat="59.9806809341" lon="23.4524448884">
        <ele>21.8</ele>
        <time>2012-03-15T19:02:07Z</time>
      </trkpt>
      <trkpt lat="59.9806862147" lon="23.4522342512">
        <ele>21.4</ele>
        <time>2012-03-15T19:02:12Z</time>
      </trkpt>
      <trkpt lat="59.9806436346" lon="23.4518043436">
        <ele>20.4</ele>
        <time>2012-03-15T19:02:21Z</time>
      </trkpt>
      <trkpt lat="59.9806165611" lon="23.4514648766">
        <ele>19.6</ele>
        <time>2012-03-15T19:02:28Z</time>
      </trkpt>
      <trkpt lat="59.9805850452" lon="23.4511095679">
        <ele>19.2</ele>
        <time>2012-03-15T19:02:35Z</time>
      </trkpt>
      <trkpt lat="59.9805678623" lon="23.450822404">
        <ele>18.2</ele>
        <time>2012-03-15T19:02:41Z</time>
      </trkpt>
      <trkpt lat="59.9805787587" lon="23.450595925">
        <ele>17.6</ele>
        <time>2012-03-15T19:02:46Z</time>
      </trkpt>
      <trkpt lat="59.9805591451" lon="23.4504303825">
        <ele>17.2</ele>
        <time>2012-03-15T19:02:53Z</time>
      </trkpt>
      <trkpt lat="59.9805288864" lon="23.4502758203">
        <ele>17</ele>
        <time>2012-03-15T19:02:58Z</time>
      </trkpt>
      <trkpt lat="59.9804797685" lon="23.449910118">
        <ele>17</ele>
        <time>2012-03-15T19:03:03Z</time>
      </trkpt>
      <trkpt lat="59.9804506833" lon="23.4496073638">
        <ele>17</ele>
        <time>2012-03-15T19:03:07Z</time>
      </trkpt>
      <trkpt lat="59.9804476658" lon="23.4492169349">
        <ele>17</ele>
        <time>2012-03-15T19:03:13Z</time>
      </trkpt>
      <trkpt lat="59.9804683691" lon="23.4487068124">
        <ele>16.8</ele>
        <time>2012-03-15T19:03:23Z</time>
      </trkpt>
      <trkpt lat="59.9804771701" lon="23.4483554432">
        <ele>15.8</ele>
        <time>2012-03-15T19:03:30Z</time>
      </trkpt>
      <trkpt lat="59.9804889048" lon="23.4480505935">
        <ele>15.4</ele>
        <time>2012-03-15T19:03:36Z</time>
      </trkpt>
      <trkpt lat="59.9805004718" lon="23.4477417205">
        <ele>15.2</ele>
        <time>2012-03-15T19:03:42Z</time>
      </trkpt>
      <trkpt lat="59.9805118712" lon="23.4474354458">
        <ele>15</ele>
        <time>2012-03-15T19:03:48Z</time>
      </trkpt>
      <trkpt lat="59.9805172356" lon="23.4471750202">
        <ele>15</ele>
        <time>2012-03-15T19:03:53Z</time>
      </trkpt>
      <trkpt lat="59.9805123741" lon="23.4469285923">
        <ele>15</ele>
        <time>2012-03-15T19:03:58Z</time>
      </trkpt>
      <trkpt lat="59.9805212589" lon="23.4466613774">
        <ele>14.8</ele>
        <time>2012-03-15T19:04:03Z</time>
      </trkpt>
      <trkpt lat="59.9805334965" lon="23.4460011351">
        <ele>14.8</ele>
        <time>2012-03-15T19:04:16Z</time>
      </trkpt>
      <trkpt lat="59.9805331612" lon="23.4457557969">
        <ele>14.8</ele>
        <time>2012-03-15T19:04:21Z</time>
      </trkpt>
      <trkpt lat="59.9805268748" lon="23.4453627696">
        <ele>14.8</ele>
        <time>2012-03-15T19:04:29Z</time>
      </trkpt>
      <trkpt lat="59.9805080993" lon="23.4451044394">
        <ele>14.8</ele>
        <time>2012-03-15T19:04:34Z</time>
      </trkpt>
      <trkpt lat="59.9804958617" lon="23.4448538206">
        <ele>14.8</ele>
        <time>2012-03-15T19:04:39Z</time>
      </trkpt>
      <trkpt lat="59.98048924" lon="23.4447011862">
        <ele>14.8</ele>
        <time>2012-03-15T19:04:42Z</time>
      </trkpt>
      <trkpt lat="59.9804894915" lon="23.4446033695">
        <ele>14.8</ele>
        <time>2012-03-15T19:04:44Z</time>
      </trkpt>
      <trkpt lat="59.9804792656" lon="23.4443633957">
        <ele>14.8</ele>
        <time>2012-03-15T19:04:49Z</time>
      </trkpt>
      <trkpt lat="59.9804707999" lon="23.4442126053">
        <ele>15.4</ele>
        <time>2012-03-15T19:04:52Z</time>
      </trkpt>
      <trkpt lat="59.9804286389" lon="23.4439366731">
        <ele>16.2</ele>
        <time>2012-03-15T19:04:58Z</time>
      </trkpt>
      <trkpt lat="59.9803193389" lon="23.4437303946">
        <ele>16.6</ele>
        <time>2012-03-15T19:05:04Z</time>
      </trkpt>
      <trkpt lat="59.9801850609" lon="23.4435199251">
        <ele>17</ele>
        <time>2012-03-15T19:05:11Z</time>
      </trkpt>
      <trkpt lat="59.9800978891" lon="23.4432838069">
        <ele>17.8</ele>
        <time>2012-03-15T19:05:17Z</time>
      </trkpt>
      <trkpt lat="59.9800574046" lon="23.443103177">
        <ele>18.2</ele>
        <time>2012-03-15T19:05:21Z</time>
      </trkpt>
      <trkpt lat="59.9800180096" lon="23.4428870916">
        <ele>18.6</ele>
        <time>2012-03-15T19:05:26Z</time>
      </trkpt>
      <trkpt lat="59.9799719092" lon="23.4426196252">
        <ele>18.8</ele>
        <time>2012-03-15T19:05:32Z</time>
      </trkpt>
      <trkpt lat="59.979947434" lon="23.4423859378">
        <ele>18.8</ele>
        <time>2012-03-15T19:05:37Z</time>
      </trkpt>
      <trkpt lat="59.9799389683" lon="23.4421428627">
        <ele>18.8</ele>
        <time>2012-03-15T19:05:42Z</time>
      </trkpt>
      <trkpt lat="59.979951625" lon="23.4418525975">
        <ele>19</ele>
        <time>2012-03-15T19:05:48Z</time>
      </trkpt>
      <trkpt lat="59.9799593363" lon="23.44164305">
        <ele>19</ele>
        <time>2012-03-15T19:05:52Z</time>
      </trkpt>
      <trkpt lat="59.9799649522" lon="23.4413271362">
        <ele>19</ele>
        <time>2012-03-15T19:05:58Z</time>
      </trkpt>
      <trkpt lat="59.9799715739" lon="23.4410689737">
        <ele>19</ele>
        <time>2012-03-15T19:06:03Z</time>
      </trkpt>
      <trkpt lat="59.9799716577" lon="23.4408276588">
        <ele>19</ele>
        <time>2012-03-15T19:06:08Z</time>
      </trkpt>
      <trkpt lat="59.9799407285" lon="23.4404849229">
        <ele>19.4</ele>
        <time>2012-03-15T19:06:15Z</time>
      </trkpt>
      <trkpt lat="59.9799126491" lon="23.4402034587">
        <ele>20.2</ele>
        <time>2012-03-15T19:06:21Z</time>
      </trkpt>
      <trkpt lat="59.9799046863" lon="23.4401118445">
        <ele>20.4</ele>
        <time>2012-03-15T19:06:23Z</time>
      </trkpt>
      <trkpt lat="59.9799049378" lon="23.439854604">
        <ele>20.6</ele>
        <time>2012-03-15T19:06:29Z</time>
      </trkpt>
      <trkpt lat="59.9799517088" lon="23.439699455">
        <ele>20.8</ele>
        <time>2012-03-15T19:06:33Z</time>
      </trkpt>
      <trkpt lat="59.9800126452" lon="23.4395205853">
        <ele>20.8</ele>
        <time>2012-03-15T19:06:38Z</time>
      </trkpt>
      <trkpt lat="59.9799942888" lon="23.4394298931">
        <ele>21</ele>
        <time>2012-03-15T19:06:41Z</time>
      </trkpt>
      <trkpt lat="59.980005772" lon="23.4391630134">
        <ele>21</ele>
        <time>2012-03-15T19:06:47Z</time>
      </trkpt>
      <trkpt lat="59.980009041" lon="23.4391224451">
        <ele>21</ele>
        <time>2012-03-15T19:06:48Z</time>
      </trkpt>
      <trkpt lat="59.9800092086" lon="23.4389057729">
        <ele>21</ele>
        <time>2012-03-15T19:06:53Z</time>
      </trkpt>
      <trkpt lat="59.9800393835" lon="23.4386952196">
        <ele>21.6</ele>
        <time>2012-03-15T19:06:58Z</time>
      </trkpt>
      <trkpt lat="59.9800688878" lon="23.4385834051">
        <ele>22</ele>
        <time>2012-03-15T19:07:01Z</time>
      </trkpt>
      <trkpt lat="59.9799759325" lon="23.4382458659">
        <ele>22.6</ele>
        <time>2012-03-15T19:07:10Z</time>
      </trkpt>
      <trkpt lat="59.9799977254" lon="23.4379775613">
        <ele>22.8</ele>
        <time>2012-03-15T19:07:16Z</time>
      </trkpt>
      <trkpt lat="59.9800260562" lon="23.4376712029">
        <ele>23</ele>
        <time>2012-03-15T19:07:23Z</time>
      </trkpt>
      <trkpt lat="59.9800511181" lon="23.43739284">
        <ele>23</ele>
        <time>2012-03-15T19:07:29Z</time>
      </trkpt>
      <trkpt lat="59.980088669" lon="23.4371531176">
        <ele>23</ele>
        <time>2012-03-15T19:07:34Z</time>
      </trkpt>
      <trkpt lat="59.9801395472" lon="23.4368779399">
        <ele>23</ele>
        <time>2012-03-15T19:07:40Z</time>
      </trkpt>
      <trkpt lat="59.9801807023" lon="23.4366493655">
        <ele>23</ele>
        <time>2012-03-15T19:07:45Z</time>
      </trkpt>
      <trkpt lat="59.980227138" lon="23.436370332">
        <ele>22.6</ele>
        <time>2012-03-15T19:07:51Z</time>
      </trkpt>
      <trkpt lat="59.9802713106" lon="23.4360814917">
        <ele>21.8</ele>
        <time>2012-03-15T19:07:57Z</time>
      </trkpt>
      <trkpt lat="59.980313304" lon="23.4358436134">
        <ele>21.4</ele>
        <time>2012-03-15T19:08:02Z</time>
      </trkpt>
      <trkpt lat="59.9803945246" lon="23.435506661">
        <ele>20.4</ele>
        <time>2012-03-15T19:08:09Z</time>
      </trkpt>
      <trkpt lat="59.980445738" lon="23.4352150547">
        <ele>19.6</ele>
        <time>2012-03-15T19:08:15Z</time>
      </trkpt>
      <trkpt lat="59.9804928443" lon="23.4349720634">
        <ele>19.4</ele>
        <time>2012-03-15T19:08:20Z</time>
      </trkpt>
      <trkpt lat="59.98054389" lon="23.4347316706">
        <ele>19.2</ele>
        <time>2012-03-15T19:08:25Z</time>
      </trkpt>
      <trkpt lat="59.9805965284" lon="23.4344833987">
        <ele>19</ele>
        <time>2012-03-15T19:08:30Z</time>
      </trkpt>
      <trkpt lat="59.9806795092" lon="23.4341617014">
        <ele>19</ele>
        <time>2012-03-15T19:08:37Z</time>
      </trkpt>
      <trkpt lat="59.9807515097" lon="23.4338907145">
        <ele>19</ele>
        <time>2012-03-15T19:08:43Z</time>
      </trkpt>
      <trkpt lat="59.9808116079" lon="23.4336695162">
        <ele>19</ele>
        <time>2012-03-15T19:08:48Z</time>
      </trkpt>
      <trkpt lat="59.9808755618" lon="23.433449156">
        <ele>18.8</ele>
        <time>2012-03-15T19:08:53Z</time>
      </trkpt>
      <trkpt lat="59.9809421979" lon="23.4331593938">
        <ele>18.8</ele>
        <time>2012-03-15T19:08:59Z</time>
      </trkpt>
      <trkpt lat="59.9810081635" lon="23.4329180789">
        <ele>18.8</ele>
        <time>2012-03-15T19:09:05Z</time>
      </trkpt>
      <trkpt lat="59.9810921501" lon="23.4326527079">
        <ele>18.8</ele>
        <time>2012-03-15T19:09:12Z</time>
      </trkpt>
      <trkpt lat="59.9811514101" lon="23.4324051904">
        <ele>18.8</ele>
        <time>2012-03-15T19:09:18Z</time>
      </trkpt>
      <trkpt lat="59.9812307029" lon="23.4320910368">
        <ele>18.4</ele>
        <time>2012-03-15T19:09:25Z</time>
      </trkpt>
      <trkpt lat="59.9813080679" lon="23.4317665734">
        <ele>17.6</ele>
        <time>2012-03-15T19:09:32Z</time>
      </trkpt>
      <trkpt lat="59.9813930603" lon="23.4314002006">
        <ele>17.2</ele>
        <time>2012-03-15T19:09:40Z</time>
      </trkpt>
      <trkpt lat="59.9814664019" lon="23.431105493">
        <ele>17</ele>
        <time>2012-03-15T19:09:46Z</time>
      </trkpt>
      <trkpt lat="59.9814922182" lon="23.4309966959">
        <ele>17</ele>
        <time>2012-03-15T19:09:50Z</time>
      </trkpt>
      <trkpt lat="59.9815499695" lon="23.4308076841">
        <ele>16.8</ele>
        <time>2012-03-15T19:09:58Z</time>
      </trkpt>
      <trkpt lat="59.9816218024" lon="23.4306200971">
        <ele>15.4</ele>
        <time>2012-03-15T19:10:12Z</time>
      </trkpt>
      <trkpt lat="59.9817994148" lon="23.4304256371">
        <ele>15.2</ele>
        <time>2012-03-15T19:10:18Z</time>
      </trkpt>
      <trkpt lat="59.9820004128" lon="23.4303800395">
        <ele>15</ele>
        <time>2012-03-15T19:10:24Z</time>
      </trkpt>
      <trkpt lat="59.9821349423" lon="23.430397893">
        <ele>15</ele>
        <time>2012-03-15T19:10:28Z</time>
      </trkpt>
      <trkpt lat="59.9823315817" lon="23.4304080351">
        <ele>14.8</ele>
        <time>2012-03-15T19:10:34Z</time>
      </trkpt>
      <trkpt lat="59.9824841322" lon="23.4303453385">
        <ele>14.8</ele>
        <time>2012-03-15T19:10:39Z</time>
      </trkpt>
      <trkpt lat="59.9826075138" lon="23.4301688995">
        <ele>14.8</ele>
        <time>2012-03-15T19:10:44Z</time>
      </trkpt>
      <trkpt lat="59.982725028" lon="23.4299538199">
        <ele>14.8</ele>
        <time>2012-03-15T19:10:50Z</time>
      </trkpt>
      <trkpt lat="59.9827557896" lon="23.4298141775">
        <ele>14.8</ele>
        <time>2012-03-15T19:10:53Z</time>
      </trkpt>
      <trkpt lat="59.9827748165" lon="23.4297116668">
        <ele>14.8</ele>
        <time>2012-03-15T19:10:55Z</time>
      </trkpt>
      <trkpt lat="59.9828276225" lon="23.429405476">
        <ele>14.8</ele>
        <time>2012-03-15T19:11:01Z</time>
      </trkpt>
      <trkpt lat="59.9828756508" lon="23.4291164681">
        <ele>14.8</ele>
        <time>2012-03-15T19:11:07Z</time>
      </trkpt>
      <trkpt lat="59.9829156325" lon="23.4288666037">
        <ele>14.8</ele>
        <time>2012-03-15T19:11:12Z</time>
      </trkpt>
      <trkpt lat="59.9829798378" lon="23.4285102053">
        <ele>14.8</ele>
        <time>2012-03-15T19:11:19Z</time>
      </trkpt>
      <trkpt lat="59.9830213282" lon="23.4282642803">
        <ele>14.8</ele>
        <time>2012-03-15T19:11:24Z</time>
      </trkpt>
      <trkpt lat="59.9830794986" lon="23.427912492">
        <ele>14.8</ele>
        <time>2012-03-15T19:11:31Z</time>
      </trkpt>
      <trkpt lat="59.9831252638" lon="23.4276160242">
        <ele>14.8</ele>
        <time>2012-03-15T19:11:37Z</time>
      </trkpt>
      <trkpt lat="59.983175639" lon="23.427331291">
        <ele>14.8</ele>
        <time>2012-03-15T19:11:43Z</time>
      </trkpt>
      <trkpt lat="59.9832297861" lon="23.4270359129">
        <ele>14.8</ele>
        <time>2012-03-15T19:11:49Z</time>
      </trkpt>
      <trkpt lat="59.9832841008" lon="23.4267296383">
        <ele>14.8</ele>
        <time>2012-03-15T19:11:55Z</time>
      </trkpt>
      <trkpt lat="59.9833329673" lon="23.4264178316">
        <ele>14.8</ele>
        <time>2012-03-15T19:12:01Z</time>
      </trkpt>
      <trkpt lat="59.983376134" lon="23.4260924462">
        <ele>15.4</ele>
        <time>2012-03-15T19:12:08Z</time>
      </trkpt>
      <trkpt lat="59.9833182989" lon="23.4258749359">
        <ele>16</ele>
        <time>2012-03-15T19:12:13Z</time>
      </trkpt>
      <trkpt lat="59.983293237" lon="23.4256202938">
        <ele>16.4</ele>
        <time>2012-03-15T19:12:18Z</time>
      </trkpt>
      <trkpt lat="59.9833666625" lon="23.4253846786">
        <ele>16.6</ele>
        <time>2012-03-15T19:12:23Z</time>
      </trkpt>
      <trkpt lat="59.9834843444" lon="23.4253250833">
        <ele>16.6</ele>
        <time>2012-03-15T19:12:27Z</time>
      </trkpt>
      <trkpt lat="59.9835990926" lon="23.4252953275">
        <ele>15.8</ele>
        <time>2012-03-15T19:12:32Z</time>
      </trkpt>
      <trkpt lat="59.9836107434" lon="23.4252906337">
        <ele>15.6</ele>
        <time>2012-03-15T19:12:33Z</time>
      </trkpt>
      <trkpt lat="59.9836782177" lon="23.4252607103">
        <ele>15.4</ele>
        <time>2012-03-15T19:12:36Z</time>
      </trkpt>
      <trkpt lat="59.9838768687" lon="23.425253418">
        <ele>15</ele>
        <time>2012-03-15T19:12:43Z</time>
      </trkpt>
      <trkpt lat="59.9840093866" lon="23.4252731993">
        <ele>14</ele>
        <time>2012-03-15T19:12:48Z</time>
      </trkpt>
      <trkpt lat="59.9841709896" lon="23.4252671644">
        <ele>13.2</ele>
        <time>2012-03-15T19:12:55Z</time>
      </trkpt>
      <trkpt lat="59.9843113864" lon="23.4251111772">
        <ele>13</ele>
        <time>2012-03-15T19:13:02Z</time>
      </trkpt>
      <trkpt lat="59.9844641885" lon="23.4250977662">
        <ele>12.8</ele>
        <time>2012-03-15T19:13:08Z</time>
      </trkpt>
      <trkpt lat="59.9845436489" lon="23.4251046393">
        <ele>12.6</ele>
        <time>2012-03-15T19:13:11Z</time>
      </trkpt>
      <trkpt lat="59.984694104" lon="23.4250059843">
        <ele>12.6</ele>
        <time>2012-03-15T19:13:17Z</time>
      </trkpt>
      <trkpt lat="59.9848239396" lon="23.4249583752">
        <ele>12.6</ele>
        <time>2012-03-15T19:13:22Z</time>
      </trkpt>
      <trkpt lat="59.9849401128" lon="23.4249675952">
        <ele>12.6</ele>
        <time>2012-03-15T19:13:26Z</time>
      </trkpt>
      <trkpt lat="59.9850511729" lon="23.4249648292">
        <ele>12.6</ele>
        <time>2012-03-15T19:13:30Z</time>
      </trkpt>
      <trkpt lat="59.9852101776" lon="23.4249577884">
        <ele>12.6</ele>
        <time>2012-03-15T19:13:36Z</time>
      </trkpt>
      <trkpt lat="59.9853885444" lon="23.4249562797">
        <ele>12.6</ele>
        <time>2012-03-15T19:13:43Z</time>
      </trkpt>
      <trkpt lat="59.9855384966" lon="23.4249629852">
        <ele>13.2</ele>
        <time>2012-03-15T19:13:49Z</time>
      </trkpt>
      <trkpt lat="59.9856618782" lon="23.4249756419">
        <ele>13.8</ele>
        <time>2012-03-15T19:13:54Z</time>
      </trkpt>
      <trkpt lat="59.9858473696" lon="23.4249809225">
        <ele>14.2</ele>
        <time>2012-03-15T19:14:01Z</time>
      </trkpt>
      <trkpt lat="59.9861759401" lon="23.4249640748">
        <ele>14.6</ele>
        <time>2012-03-15T19:14:14Z</time>
      </trkpt>
      <trkpt lat="59.9862656264" lon="23.4249504962">
        <ele>14.6</ele>
        <time>2012-03-15T19:14:22Z</time>
      </trkpt>
      <trkpt lat="59.9863807099" lon="23.4249401864">
        <ele>14.6</ele>
        <time>2012-03-15T19:14:30Z</time>
      </trkpt>
      <trkpt lat="59.9864996491" lon="23.4249569502">
        <ele>14.6</ele>
        <time>2012-03-15T19:14:35Z</time>
      </trkpt>
      <trkpt lat="59.986708526" lon="23.4250109297">
        <ele>14.6</ele>
        <time>2012-03-15T19:14:41Z</time>
      </trkpt>
      <trkpt lat="59.9869143017" lon="23.4251058966">
        <ele>14.6</ele>
        <time>2012-03-15T19:14:47Z</time>
      </trkpt>
      <trkpt lat="59.9870869688" lon="23.4251871172">
        <ele>14.6</ele>
        <time>2012-03-15T19:14:52Z</time>
      </trkpt>
      <trkpt lat="59.9872196543" lon="23.4252680025">
        <ele>14.6</ele>
        <time>2012-03-15T19:14:56Z</time>
      </trkpt>
      <trkpt lat="59.9873899745" lon="23.4253640591">
        <ele>14.6</ele>
        <time>2012-03-15T19:15:01Z</time>
      </trkpt>
      <trkpt lat="59.9875389209" lon="23.4254274263">
        <ele>14.6</ele>
        <time>2012-03-15T19:15:06Z</time>
      </trkpt>
      <trkpt lat="59.9876593688" lon="23.4254537454">
        <ele>14.6</ele>
        <time>2012-03-15T19:15:11Z</time>
      </trkpt>
      <trkpt lat="59.9878270068" lon="23.4254752869">
        <ele>14.6</ele>
        <time>2012-03-15T19:15:18Z</time>
      </trkpt>
      <trkpt lat="59.987978803" lon="23.4255100718">
        <ele>15.6</ele>
        <time>2012-03-15T19:15:24Z</time>
      </trkpt>
      <trkpt lat="59.9881584271" lon="23.4255534062">
        <ele>16.2</ele>
        <time>2012-03-15T19:15:31Z</time>
      </trkpt>
      <trkpt lat="59.9882677271" lon="23.4255867662">
        <ele>16.4</ele>
        <time>2012-03-15T19:15:36Z</time>
      </trkpt>
      <trkpt lat="59.9883712435" lon="23.4256126663">
        <ele>16.6</ele>
        <time>2012-03-15T19:15:40Z</time>
      </trkpt>
      <trkpt lat="59.9885045996" lon="23.425629933">
        <ele>16.6</ele>
        <time>2012-03-15T19:15:45Z</time>
      </trkpt>
      <trkpt lat="59.9886563958" lon="23.4256632091">
        <ele>16.6</ele>
        <time>2012-03-15T19:15:51Z</time>
      </trkpt>
      <trkpt lat="59.9888186693" lon="23.4256730998">
        <ele>16.6</ele>
        <time>2012-03-15T19:15:57Z</time>
      </trkpt>
      <trkpt lat="59.9890073459" lon="23.4256838286">
        <ele>16.6</ele>
        <time>2012-03-15T19:16:04Z</time>
      </trkpt>
      <trkpt lat="59.9891667697" lon="23.4257054539">
        <ele>16.8</ele>
        <time>2012-03-15T19:16:10Z</time>
      </trkpt>
      <trkpt lat="59.9893230921" lon="23.4257122432">
        <ele>16.8</ele>
        <time>2012-03-15T19:16:16Z</time>
      </trkpt>
      <trkpt lat="59.9894548556" lon="23.4257203737">
        <ele>16.8</ele>
        <time>2012-03-15T19:16:21Z</time>
      </trkpt>
      <trkpt lat="59.9896389221" lon="23.4257366346">
        <ele>16.8</ele>
        <time>2012-03-15T19:16:28Z</time>
      </trkpt>
      <trkpt lat="59.9897706017" lon="23.4257439268">
        <ele>16.8</ele>
        <time>2012-03-15T19:16:33Z</time>
      </trkpt>
      <trkpt lat="59.9898603719" lon="23.4257700784">
        <ele>16.8</ele>
        <time>2012-03-15T19:16:37Z</time>
      </trkpt>
      <trkpt lat="59.9899125073" lon="23.4257678991">
        <ele>16.8</ele>
        <time>2012-03-15T19:16:39Z</time>
      </trkpt>
      <trkpt lat="59.9899915486" lon="23.4257590981">
        <ele>16.8</ele>
        <time>2012-03-15T19:16:42Z</time>
      </trkpt>
      <trkpt lat="59.990137226" lon="23.4257686534">
        <ele>16.8</ele>
        <time>2012-03-15T19:16:48Z</time>
      </trkpt>
      <trkpt lat="59.9902597694" lon="23.425781813">
        <ele>16.8</ele>
        <time>2012-03-15T19:16:53Z</time>
      </trkpt>
      <trkpt lat="59.9904077099" lon="23.4257990797">
        <ele>16.8</ele>
        <time>2012-03-15T19:16:59Z</time>
      </trkpt>
      <trkpt lat="59.9905423233" lon="23.4258184419">
        <ele>16.8</ele>
        <time>2012-03-15T19:17:05Z</time>
      </trkpt>
      <trkpt lat="59.9907342688" lon="23.4258450125">
        <ele>16.8</ele>
        <time>2012-03-15T19:17:13Z</time>
      </trkpt>
      <trkpt lat="59.9908777669" lon="23.4258629498">
        <ele>16.8</ele>
        <time>2012-03-15T19:17:19Z</time>
      </trkpt>
      <trkpt lat="59.991051356" lon="23.425910559">
        <ele>17.2</ele>
        <time>2012-03-15T19:17:26Z</time>
      </trkpt>
      <trkpt lat="59.9912023979" lon="23.4259763569">
        <ele>17.8</ele>
        <time>2012-03-15T19:17:32Z</time>
      </trkpt>
      <trkpt lat="59.9913728019" lon="23.4260920271">
        <ele>18.4</ele>
        <time>2012-03-15T19:17:39Z</time>
      </trkpt>
      <trkpt lat="59.9915325609" lon="23.4262208569">
        <ele>18.6</ele>
        <time>2012-03-15T19:17:46Z</time>
      </trkpt>
      <trkpt lat="59.9916688506" lon="23.4263515308">
        <ele>18.6</ele>
        <time>2012-03-15T19:17:52Z</time>
      </trkpt>
      <trkpt lat="59.9918317109" lon="23.4265532831">
        <ele>18.8</ele>
        <time>2012-03-15T19:17:59Z</time>
      </trkpt>
      <trkpt lat="59.9919956609" lon="23.4267828633">
        <ele>18.8</ele>
        <time>2012-03-15T19:18:06Z</time>
      </trkpt>
      <trkpt lat="59.9920814077" lon="23.4269028921">
        <ele>18.8</ele>
        <time>2012-03-15T19:18:11Z</time>
      </trkpt>
      <trkpt lat="59.992204454" lon="23.4270123598">
        <ele>18.8</ele>
        <time>2012-03-15T19:18:20Z</time>
      </trkpt>
      <trkpt lat="59.9923487903" lon="23.4270924069">
        <ele>18.8</ele>
        <time>2012-03-15T19:18:25Z</time>
      </trkpt>
      <trkpt lat="59.9925376346" lon="23.4271235037">
        <ele>18.8</ele>
        <time>2012-03-15T19:18:30Z</time>
      </trkpt>
      <trkpt lat="59.9927201085" lon="23.4271294549">
        <ele>18.4</ele>
        <time>2012-03-15T19:18:35Z</time>
      </trkpt>
      <trkpt lat="59.9930358547" lon="23.4271665029">
        <ele>17.6</ele>
        <time>2012-03-15T19:18:43Z</time>
      </trkpt>
      <trkpt lat="59.9930887445" lon="23.4271688498">
        <ele>17.4</ele>
        <time>2012-03-15T19:18:44Z</time>
      </trkpt>
      <trkpt lat="59.9932918379" lon="23.4271291196">
        <ele>17.2</ele>
        <time>2012-03-15T19:18:48Z</time>
      </trkpt>
      <trkpt lat="59.9934759883" lon="23.4269946739">
        <ele>17</ele>
        <time>2012-03-15T19:18:52Z</time>
      </trkpt>
      <trkpt lat="59.9935500004" lon="23.4268678558">
        <ele>17</ele>
        <time>2012-03-15T19:18:54Z</time>
      </trkpt>
      <trkpt lat="59.9936123618" lon="23.4267567956">
        <ele>17</ele>
        <time>2012-03-15T19:18:56Z</time>
      </trkpt>
      <trkpt lat="59.9937909801" lon="23.4265884871">
        <ele>16.8</ele>
        <time>2012-03-15T19:19:01Z</time>
      </trkpt>
      <trkpt lat="59.9938553531" lon="23.4264827075">
        <ele>16.8</ele>
        <time>2012-03-15T19:19:03Z</time>
      </trkpt>
      <trkpt lat="59.994016537" lon="23.4261305001">
        <ele>16</ele>
        <time>2012-03-15T19:19:09Z</time>
      </trkpt>
      <trkpt lat="59.9941308661" lon="23.4260762692">
        <ele>15.6</ele>
        <time>2012-03-15T19:19:13Z</time>
      </trkpt>
      <trkpt lat="59.9942958219" lon="23.4263281453">
        <ele>15.2</ele>
        <time>2012-03-15T19:19:18Z</time>
      </trkpt>
      <trkpt lat="59.9944396553" lon="23.426623272">
        <ele>15</ele>
        <time>2012-03-15T19:19:23Z</time>
      </trkpt>
      <trkpt lat="59.9944669803" lon="23.4266838731">
        <ele>15</ele>
        <time>2012-03-15T19:19:24Z</time>
      </trkpt>
      <trkpt lat="59.9946017613" lon="23.4268835299">
        <ele>14.8</ele>
        <time>2012-03-15T19:19:28Z</time>
      </trkpt>
      <trkpt lat="59.9948141586" lon="23.4270729609">
        <ele>15.2</ele>
        <time>2012-03-15T19:19:34Z</time>
      </trkpt>
      <trkpt lat="59.9949672121" lon="23.4271701071">
        <ele>15.8</ele>
        <time>2012-03-15T19:19:39Z</time>
      </trkpt>
      <trkpt lat="59.9950513664" lon="23.4269889742">
        <ele>16.2</ele>
        <time>2012-03-15T19:19:44Z</time>
      </trkpt>
      <trkpt lat="59.995060335" lon="23.4269692768">
        <ele>16.4</ele>
        <time>2012-03-15T19:19:48Z</time>
      </trkpt>
      <trkpt lat="59.9950614246" lon="23.4269644991">
        <ele>16.4</ele>
        <time>2012-03-15T19:19:50Z</time>
      </trkpt>
      <trkpt lat="59.9950547191" lon="23.4270561971">
        <ele>16.6</ele>
        <time>2012-03-15T19:19:54Z</time>
      </trkpt>
      <trkpt lat="59.9950467563" lon="23.4270542693">
        <ele>16.6</ele>
        <time>2012-03-15T19:19:56Z</time>
      </trkpt>
      <trkpt lat="59.9949841435" lon="23.4271057341">
        <ele>16.6</ele>
        <time>2012-03-15T19:20:00Z</time>
      </trkpt>
      <trkpt lat="59.994943659" lon="23.427049743">
        <ele>16.6</ele>
        <time>2012-03-15T19:20:02Z</time>
      </trkpt>
      <trkpt lat="59.9949512865" lon="23.4268495833">
        <ele>16.8</ele>
        <time>2012-03-15T19:20:06Z</time>
      </trkpt>
      <trkpt lat="59.9949975546" lon="23.4267950171">
        <ele>16.8</ele>
        <time>2012-03-15T19:20:10Z</time>
      </trkpt>
      <trkpt lat="59.9948683895" lon="23.4272017907">
        <ele>5</ele>
        <time>2012-03-15T19:23:24Z</time>
      </trkpt>
      <trkpt lat="59.9948145777" lon="23.427165078">
        <ele>6.8</ele>
        <time>2012-03-15T19:23:28Z</time>
      </trkpt>
      <trkpt lat="59.9947020926" lon="23.4270732123">
        <ele>8.2</ele>
        <time>2012-03-15T19:23:33Z</time>
      </trkpt>
      <trkpt lat="59.9945481171" lon="23.4269357492">
        <ele>9</ele>
        <time>2012-03-15T19:23:38Z</time>
      </trkpt>
      <trkpt lat="59.9944172756" lon="23.4267473241">
        <ele>9.6</ele>
        <time>2012-03-15T19:23:43Z</time>
      </trkpt>
      <trkpt lat="59.9942948999" lon="23.4265287241">
        <ele>9.8</ele>
        <time>2012-03-15T19:23:48Z</time>
      </trkpt>
      <trkpt lat="59.9941801517" lon="23.42629445">
        <ele>10.6</ele>
        <time>2012-03-15T19:23:53Z</time>
      </trkpt>
      <trkpt lat="59.9940713546" lon="23.4260116447">
        <ele>11.4</ele>
        <time>2012-03-15T19:23:59Z</time>
      </trkpt>
      <trkpt lat="59.9940761323" lon="23.4259584196">
        <ele>11.6</ele>
        <time>2012-03-15T19:24:00Z</time>
      </trkpt>
      <trkpt lat="59.9941597837" lon="23.4257335333">
        <ele>11.8</ele>
        <time>2012-03-15T19:24:04Z</time>
      </trkpt>
      <trkpt lat="59.9942974983" lon="23.425448381">
        <ele>12</ele>
        <time>2012-03-15T19:24:10Z</time>
      </trkpt>
      <trkpt lat="59.9944206284" lon="23.4251838483">
        <ele>12.2</ele>
        <time>2012-03-15T19:24:16Z</time>
      </trkpt>
      <trkpt lat="59.9944757813" lon="23.42506449">
        <ele>12.2</ele>
        <time>2012-03-15T19:24:19Z</time>
      </trkpt>
      <trkpt lat="59.9945005917" lon="23.4250064873">
        <ele>12.2</ele>
        <time>2012-03-15T19:24:21Z</time>
      </trkpt>
      <trkpt lat="59.9946246438" lon="23.4247598079">
        <ele>12.2</ele>
        <time>2012-03-15T19:24:26Z</time>
      </trkpt>
      <trkpt lat="59.9947647892" lon="23.4245222649">
        <ele>12.2</ele>
        <time>2012-03-15T19:24:32Z</time>
      </trkpt>
      <trkpt lat="59.9949085388" lon="23.4242740768">
        <ele>12.4</ele>
        <time>2012-03-15T19:24:38Z</time>
      </trkpt>
      <trkpt lat="59.9950682978" lon="23.4241130605">
        <ele>13.4</ele>
        <time>2012-03-15T19:24:44Z</time>
      </trkpt>
      <trkpt lat="59.9951073575" lon="23.4240295768">
        <ele>13.6</ele>
        <time>2012-03-15T19:24:46Z</time>
      </trkpt>
      <trkpt lat="59.9951107102" lon="23.4237406527">
        <ele>13.8</ele>
        <time>2012-03-15T19:24:51Z</time>
      </trkpt>
      <trkpt lat="59.9951008196" lon="23.4236832367">
        <ele>13.8</ele>
        <time>2012-03-15T19:24:52Z</time>
      </trkpt>
      <trkpt lat="59.9950330938" lon="23.4233539119">
        <ele>14</ele>
        <time>2012-03-15T19:24:58Z</time>
      </trkpt>
      <trkpt lat="59.9949891727" lon="23.4232055522">
        <ele>14.2</ele>
        <time>2012-03-15T19:25:01Z</time>
      </trkpt>
      <trkpt lat="59.9949650328" lon="23.4231219847">
        <ele>14.2</ele>
        <time>2012-03-15T19:25:03Z</time>
      </trkpt>
      <trkpt lat="59.9949101314" lon="23.4228940808">
        <ele>14.2</ele>
        <time>2012-03-15T19:25:07Z</time>
      </trkpt>
      <trkpt lat="59.9948906015" lon="23.4226044024">
        <ele>14.2</ele>
        <time>2012-03-15T19:25:12Z</time>
      </trkpt>
      <trkpt lat="59.9949031744" lon="23.4223171546">
        <ele>14.2</ele>
        <time>2012-03-15T19:25:17Z</time>
      </trkpt>
      <trkpt lat="59.9949120592" lon="23.4220327568">
        <ele>14.2</ele>
        <time>2012-03-15T19:25:22Z</time>
      </trkpt>
      <trkpt lat="59.9949361991" lon="23.4217621052">
        <ele>14.2</ele>
        <time>2012-03-15T19:25:27Z</time>
      </trkpt>
      <trkpt lat="59.9949419826" lon="23.4215108159">
        <ele>14.2</ele>
        <time>2012-03-15T19:25:32Z</time>
      </trkpt>
      <trkpt lat="59.9949337683" lon="23.4213248215">
        <ele>14.2</ele>
        <time>2012-03-15T19:25:35Z</time>
      </trkpt>
      <trkpt lat="59.9949134003" lon="23.4210509848">
        <ele>14.2</ele>
        <time>2012-03-15T19:25:40Z</time>
      </trkpt>
      <trkpt lat="59.9948617678" lon="23.4207053991">
        <ele>14.4</ele>
        <time>2012-03-15T19:25:46Z</time>
      </trkpt>
      <trkpt lat="59.9948074531" lon="23.4204330712">
        <ele>14.4</ele>
        <time>2012-03-15T19:25:51Z</time>
      </trkpt>
      <trkpt lat="59.9947349496" lon="23.4201114577">
        <ele>14.4</ele>
        <time>2012-03-15T19:25:57Z</time>
      </trkpt>
      <trkpt lat="59.9946815569" lon="23.419831586">
        <ele>14.4</ele>
        <time>2012-03-15T19:26:02Z</time>
      </trkpt>
      <trkpt lat="59.9946097241" lon="23.4194896883">
        <ele>14.4</ele>
        <time>2012-03-15T19:26:08Z</time>
      </trkpt>
      <trkpt lat="59.9945473627" lon="23.4192135885">
        <ele>14.4</ele>
        <time>2012-03-15T19:26:13Z</time>
      </trkpt>
      <trkpt lat="59.9944749431" lon="23.4189388299">
        <ele>14.4</ele>
        <time>2012-03-15T19:26:18Z</time>
      </trkpt>
      <trkpt lat="59.9943953151" lon="23.4186168811">
        <ele>14.4</ele>
        <time>2012-03-15T19:26:24Z</time>
      </trkpt>
      <trkpt lat="59.994327254" lon="23.4183365903">
        <ele>14.4</ele>
        <time>2012-03-15T19:26:30Z</time>
      </trkpt>
      <trkpt lat="59.9942684969" lon="23.4181040764">
        <ele>14.8</ele>
        <time>2012-03-15T19:26:35Z</time>
      </trkpt>
      <trkpt lat="59.9941880307" lon="23.4178653599">
        <ele>15.4</ele>
        <time>2012-03-15T19:26:40Z</time>
      </trkpt>
      <trkpt lat="59.9940794851" lon="23.4176421499">
        <ele>15.8</ele>
        <time>2012-03-15T19:26:45Z</time>
      </trkpt>
      <trkpt lat="59.9939187202" lon="23.4174468517">
        <ele>16.8</ele>
        <time>2012-03-15T19:26:51Z</time>
      </trkpt>
      <trkpt lat="59.9938355718" lon="23.4173824787">
        <ele>17.2</ele>
        <time>2012-03-15T19:26:54Z</time>
      </trkpt>
      <trkpt lat="59.9936287065" lon="23.4171995018">
        <ele>19</ele>
        <time>2012-03-15T19:27:02Z</time>
      </trkpt>
      <trkpt lat="59.9935333205" lon="23.4169966598">
        <ele>20.8</ele>
        <time>2012-03-15T19:27:07Z</time>
      </trkpt>
      <trkpt lat="59.9934402814" lon="23.4167367371">
        <ele>22.6</ele>
        <time>2012-03-15T19:27:13Z</time>
      </trkpt>
      <trkpt lat="59.9933333283" lon="23.4164054006">
        <ele>24.2</ele>
        <time>2012-03-15T19:27:20Z</time>
      </trkpt>
      <trkpt lat="59.9932485035" lon="23.4161586374">
        <ele>24.6</ele>
        <time>2012-03-15T19:27:25Z</time>
      </trkpt>
      <trkpt lat="59.9931640978" lon="23.4159189151">
        <ele>25</ele>
        <time>2012-03-15T19:27:30Z</time>
      </trkpt>
      <trkpt lat="59.9930759202" lon="23.4155926077">
        <ele>25.2</ele>
        <time>2012-03-15T19:27:36Z</time>
      </trkpt>
      <trkpt lat="59.9929904248" lon="23.4153149154">
        <ele>25.4</ele>
        <time>2012-03-15T19:27:41Z</time>
      </trkpt>
      <trkpt lat="59.9929113835" lon="23.4150243987">
        <ele>25.4</ele>
        <time>2012-03-15T19:27:46Z</time>
      </trkpt>
      <trkpt lat="59.9928349405" lon="23.4146795674">
        <ele>25.4</ele>
        <time>2012-03-15T19:27:52Z</time>
      </trkpt>
      <trkpt lat="59.9927751776" lon="23.4142931618">
        <ele>25.4</ele>
        <time>2012-03-15T19:27:59Z</time>
      </trkpt>
      <trkpt lat="59.992766209" lon="23.4139956043">
        <ele>25.4</ele>
        <time>2012-03-15T19:28:04Z</time>
      </trkpt>
      <trkpt lat="59.9927793686" lon="23.4136547963">
        <ele>25.4</ele>
        <time>2012-03-15T19:28:10Z</time>
      </trkpt>
      <trkpt lat="59.9928068612" lon="23.413296051">
        <ele>25.4</ele>
        <time>2012-03-15T19:28:16Z</time>
      </trkpt>
      <trkpt lat="59.9928229544" lon="23.4129898601">
        <ele>25.4</ele>
        <time>2012-03-15T19:28:21Z</time>
      </trkpt>
      <trkpt lat="59.9928340185" lon="23.4126797298">
        <ele>25.4</ele>
        <time>2012-03-15T19:28:26Z</time>
      </trkpt>
      <trkpt lat="59.9928429872" lon="23.4124010317">
        <ele>25</ele>
        <time>2012-03-15T19:28:31Z</time>
      </trkpt>
      <trkpt lat="59.9928609244" lon="23.4120510035">
        <ele>24.2</ele>
        <time>2012-03-15T19:28:37Z</time>
      </trkpt>
      <trkpt lat="59.9928543866" lon="23.4117483331">
        <ele>24</ele>
        <time>2012-03-15T19:28:42Z</time>
      </trkpt>
      <trkpt lat="59.9928444959" lon="23.4114643543">
        <ele>23</ele>
        <time>2012-03-15T19:28:47Z</time>
      </trkpt>
      <trkpt lat="59.992792612" lon="23.4111281563">
        <ele>22.2</ele>
        <time>2012-03-15T19:28:53Z</time>
      </trkpt>
      <trkpt lat="59.9927397222" lon="23.4108284196">
        <ele>21.8</ele>
        <time>2012-03-15T19:28:59Z</time>
      </trkpt>
      <trkpt lat="59.9926792048" lon="23.4105715144">
        <ele>21.4</ele>
        <time>2012-03-15T19:29:04Z</time>
      </trkpt>
      <trkpt lat="59.9925839865" lon="23.4102649045">
        <ele>20.4</ele>
        <time>2012-03-15T19:29:10Z</time>
      </trkpt>
      <trkpt lat="59.9923538195" lon="23.4098186521">
        <ele>18.8</ele>
        <time>2012-03-15T19:29:21Z</time>
      </trkpt>
      <trkpt lat="59.9922254926" lon="23.4096957734">
        <ele>18.2</ele>
        <time>2012-03-15T19:29:26Z</time>
      </trkpt>
      <trkpt lat="59.9920558429" lon="23.4096092722">
        <ele>17.6</ele>
        <time>2012-03-15T19:29:32Z</time>
      </trkpt>
      <trkpt lat="59.9918856904" lon="23.4095466594">
        <ele>17.4</ele>
        <time>2012-03-15T19:29:38Z</time>
      </trkpt>
      <trkpt lat="59.9917341456" lon="23.4095235254">
        <ele>17.2</ele>
        <time>2012-03-15T19:29:43Z</time>
      </trkpt>
      <trkpt lat="59.9915306331" lon="23.4094722282">
        <ele>17.2</ele>
        <time>2012-03-15T19:29:50Z</time>
      </trkpt>
      <trkpt lat="59.9913643362" lon="23.4094685401">
        <ele>17.2</ele>
        <time>2012-03-15T19:29:56Z</time>
      </trkpt>
      <trkpt lat="59.9912298067" lon="23.4095531973">
        <ele>17.2</ele>
        <time>2012-03-15T19:30:01Z</time>
      </trkpt>
      <trkpt lat="59.991007854" lon="23.4097387726">
        <ele>17</ele>
        <time>2012-03-15T19:30:09Z</time>
      </trkpt>
      <trkpt lat="59.9908812873" lon="23.4098703684">
        <ele>17</ele>
        <time>2012-03-15T19:30:14Z</time>
      </trkpt>
      <trkpt lat="59.9907516193" lon="23.4100171355">
        <ele>17</ele>
        <time>2012-03-15T19:30:19Z</time>
      </trkpt>
      <trkpt lat="59.9905825564" lon="23.4101193947">
        <ele>17</ele>
        <time>2012-03-15T19:30:25Z</time>
      </trkpt>
      <trkpt lat="59.990442411" lon="23.4101241724">
        <ele>17</ele>
        <time>2012-03-15T19:30:30Z</time>
      </trkpt>
      <trkpt lat="59.9903232204" lon="23.4100143695">
        <ele>17</ele>
        <time>2012-03-15T19:30:35Z</time>
      </trkpt>
      <trkpt lat="59.9902137528" lon="23.4097373477">
        <ele>17</ele>
        <time>2012-03-15T19:30:41Z</time>
      </trkpt>
      <trkpt lat="59.9901203784" lon="23.4093694661">
        <ele>17</ele>
        <time>2012-03-15T19:30:48Z</time>
      </trkpt>
      <trkpt lat="59.9900340448" lon="23.4090625209">
        <ele>17</ele>
        <time>2012-03-15T19:30:54Z</time>
      </trkpt>
      <trkpt lat="59.9899456996" lon="23.4088238882">
        <ele>17</ele>
        <time>2012-03-15T19:30:59Z</time>
      </trkpt>
      <trkpt lat="59.9898669098" lon="23.4086053721">
        <ele>17</ele>
        <time>2012-03-15T19:31:04Z</time>
      </trkpt>
      <trkpt lat="59.9897793189" lon="23.4083975848">
        <ele>17</ele>
        <time>2012-03-15T19:31:09Z</time>
      </trkpt>
      <trkpt lat="59.9897623875" lon="23.4082809087">
        <ele>17</ele>
        <time>2012-03-15T19:31:12Z</time>
      </trkpt>
      <trkpt lat="59.9898253355" lon="23.4080394262">
        <ele>17.8</ele>
        <time>2012-03-15T19:31:17Z</time>
      </trkpt>
      <trkpt lat="59.9898894571" lon="23.40789224">
        <ele>18.2</ele>
        <time>2012-03-15T19:31:20Z</time>
      </trkpt>
      <trkpt lat="59.9900317817" lon="23.4077697805">
        <ele>18.6</ele>
        <time>2012-03-15T19:31:25Z</time>
      </trkpt>
      <trkpt lat="59.9901916246" lon="23.4076746459">
        <ele>18.8</ele>
        <time>2012-03-15T19:31:31Z</time>
      </trkpt>
      <trkpt lat="59.9903138327" lon="23.4076154697">
        <ele>19</ele>
        <time>2012-03-15T19:31:36Z</time>
      </trkpt>
      <trkpt lat="59.9903503778" lon="23.4075849596">
        <ele>19</ele>
        <time>2012-03-15T19:31:39Z</time>
      </trkpt>
      <trkpt lat="59.9903606875" lon="23.4075564611">
        <ele>19</ele>
        <time>2012-03-15T19:31:41Z</time>
      </trkpt>
    </trkseg>
  </trk>
</gpx>